ETH263 SKBO-GOBD
Flight info
| Callsign | ETH263 |
|---|---|
| Flight time | 7h 7m |
| Altitude | 35000 |
| Route | MAVDA UW20 AUC DCT MIQ UN669 ELJEZ/M083F350 DCT 2150N DCT 2340N DCT 22N036W DCT ERNEK/N0490F350 DCT EVKAS DCT BVT DCT MOGSA DCT PIVSA |
| Aircraft | B77L/H-SDE1E2E3FGHIJ2J3J4J5M1RWXY/LB1D1 |
Departure
| Time | 2026-04-25 11:07 |
|---|---|
| Airport | El Dorado International Airport (SKBO) |
Arrival
| Time | 2026-04-25 18:14 |
|---|---|
| Airport | Blaise Diagne International Airport (GOBD) |
| Time | Latitude | Longitude | Altitude | Speed | Heading |
|---|---|---|---|---|---|
| 2026-04-25 09:26 | 4.69063 | -74.13691 | 8375 ft | 0 kts | 37° |
| 2026-04-25 10:30 | 4.69054 | -74.13697 | 8376 ft | 4 kts | 40° |
| 2026-04-25 10:30 | 4.69034 | -74.13713 | 8377 ft | 2 kts | 37° |
| 2026-04-25 10:30 | 4.69014 | -74.13724 | 8377 ft | 4 kts | 5° |
| 2026-04-25 10:31 | 4.68988 | -74.13721 | 8377 ft | 4 kts | 334° |
| 2026-04-25 10:31 | 4.68965 | -74.13707 | 8376 ft | 4 kts | 315° |
| 2026-04-25 10:31 | 4.68959 | -74.13701 | 8374 ft | 4 kts | 307° |
| 2026-04-25 10:31 | 4.68976 | -74.13723 | 8377 ft | 4 kts | 307° |
| 2026-04-25 10:32 | 4.68992 | -74.13744 | 8377 ft | 4 kts | 307° |
| 2026-04-25 10:32 | 4.69008 | -74.13766 | 8375 ft | 4 kts | 307° |
| 2026-04-25 10:32 | 4.69017 | -74.13778 | 8373 ft | 0 kts | 307° |
| 2026-04-25 10:35 | 4.69018 | -74.13778 | 8373 ft | 0 kts | 307° |
| 2026-04-25 10:35 | 4.69033 | -74.13798 | 8377 ft | 8 kts | 307° |
| 2026-04-25 10:35 | 4.69086 | -74.13868 | 8373 ft | 16 kts | 307° |
| 2026-04-25 10:36 | 4.69118 | -74.13969 | 8374 ft | 15 kts | 277° |
| 2026-04-25 10:36 | 4.69157 | -74.14055 | 8376 ft | 13 kts | 308° |
| 2026-04-25 10:36 | 4.69213 | -74.14126 | 8378 ft | 13 kts | 307° |
| 2026-04-25 10:36 | 4.69268 | -74.14199 | 8377 ft | 14 kts | 307° |
| 2026-04-25 10:37 | 4.69332 | -74.14283 | 8373 ft | 17 kts | 307° |
| 2026-04-25 10:37 | 4.69408 | -74.14382 | 8373 ft | 19 kts | 307° |
| 2026-04-25 10:37 | 4.69490 | -74.14491 | 8376 ft | 20 kts | 307° |
| 2026-04-25 10:37 | 4.69572 | -74.14600 | 8375 ft | 20 kts | 307° |
| 2026-04-25 10:38 | 4.69654 | -74.14709 | 8375 ft | 20 kts | 307° |
| 2026-04-25 10:38 | 4.69737 | -74.14816 | 8375 ft | 20 kts | 308° |
| 2026-04-25 10:38 | 4.69819 | -74.14926 | 8376 ft | 20 kts | 307° |
| 2026-04-25 10:38 | 4.69901 | -74.15034 | 8374 ft | 20 kts | 307° |
| 2026-04-25 10:39 | 4.69983 | -74.15143 | 8375 ft | 20 kts | 307° |
| 2026-04-25 10:39 | 4.70070 | -74.15259 | 8374 ft | 23 kts | 307° |
| 2026-04-25 10:39 | 4.70173 | -74.15395 | 8375 ft | 26 kts | 307° |
| 2026-04-25 10:39 | 4.70288 | -74.15546 | 8377 ft | 27 kts | 307° |
| 2026-04-25 10:40 | 4.70401 | -74.15697 | 8376 ft | 27 kts | 307° |
| 2026-04-25 10:40 | 4.70518 | -74.15851 | 8374 ft | 27 kts | 307° |
| 2026-04-25 10:40 | 4.70632 | -74.16001 | 8374 ft | 27 kts | 307° |
| 2026-04-25 10:40 | 4.70709 | -74.16103 | 8376 ft | 27 kts | 307° |
| 2026-04-25 10:41 | 4.70864 | -74.16306 | 8377 ft | 27 kts | 307° |
| 2026-04-25 10:41 | 4.70978 | -74.16456 | 8376 ft | 27 kts | 307° |
| 2026-04-25 10:41 | 4.71093 | -74.16608 | 8377 ft | 27 kts | 307° |
| 2026-04-25 10:41 | 4.71191 | -74.16740 | 8375 ft | 12 kts | 304° |
| 2026-04-25 10:42 | 4.71183 | -74.16808 | 8375 ft | 11 kts | 223° |
| 2026-04-25 10:42 | 4.71159 | -74.16826 | 8377 ft | 0 kts | 217° |
| 2026-04-25 11:05 | 4.71158 | -74.16827 | 8378 ft | 1 kts | 217° |
| 2026-04-25 11:05 | 4.71115 | -74.16860 | 8376 ft | 14 kts | 217° |
| 2026-04-25 11:05 | 4.71029 | -74.16876 | 8375 ft | 12 kts | 145° |
| 2026-04-25 11:05 | 4.70999 | -74.16842 | 8374 ft | 0 kts | 127° |
| 2026-04-25 11:06 | 4.70980 | -74.16816 | 8377 ft | 25 kts | 127° |
| 2026-04-25 11:06 | 4.70736 | -74.16495 | 8377 ft | 89 kts | 127° |
| 2026-04-25 11:06 | 4.70245 | -74.15847 | 8373 ft | 142 kts | 127° |
| 2026-04-25 11:07 | 4.69564 | -74.14947 | 8373 ft | 180 kts | 127° |
| 2026-04-25 11:07 | 4.68755 | -74.13893 | 8602 ft | 194 kts | 127° |
| 2026-04-25 11:07 | 4.67952 | -74.12826 | 9108 ft | 194 kts | 130° |
| 2026-04-25 11:07 | 4.66833 | -74.12073 | 9390 ft | 200 kts | 169° |
| 2026-04-25 11:08 | 4.65487 | -74.12272 | 9662 ft | 200 kts | 216° |
| 2026-04-25 11:08 | 4.64708 | -74.13376 | 9938 ft | 200 kts | 261° |
| 2026-04-25 11:08 | 4.64798 | -74.14771 | 10084 ft | 211 kts | 276° |
| 2026-04-25 11:08 | 4.64487 | -74.16253 | 10206 ft | 226 kts | 237° |
| 2026-04-25 11:09 | 4.63556 | -74.17572 | 10499 ft | 237 kts | 237° |
| 2026-04-25 11:09 | 4.62651 | -74.18997 | 10961 ft | 246 kts | 238° |
| 2026-04-25 11:09 | 4.61759 | -74.20461 | 11614 ft | 245 kts | 243° |
| 2026-04-25 11:09 | 4.61228 | -74.22093 | 12118 ft | 254 kts | 261° |
| 2026-04-25 11:10 | 4.60924 | -74.23929 | 12360 ft | 281 kts | 260° |
| 2026-04-25 11:10 | 4.60688 | -74.25248 | 12511 ft | 300 kts | 260° |
| 2026-04-25 11:10 | 4.59734 | -74.28003 | 12831 ft | 328 kts | 230° |
| 2026-04-25 11:10 | 4.58119 | -74.29553 | 13929 ft | 317 kts | 224° |
| 2026-04-25 11:11 | 4.56566 | -74.31100 | 14970 ft | 314 kts | 227° |
| 2026-04-25 11:11 | 4.55049 | -74.32691 | 15846 ft | 317 kts | 227° |
| 2026-04-25 11:11 | 4.53511 | -74.34299 | 16637 ft | 323 kts | 227° |
| 2026-04-25 11:11 | 4.51814 | -74.35775 | 17227 ft | 329 kts | 211° |
| 2026-04-25 11:12 | 4.49643 | -74.36546 | 17901 ft | 337 kts | 187° |
| 2026-04-25 11:12 | 4.47302 | -74.36420 | 18689 ft | 341 kts | 165° |
| 2026-04-25 11:12 | 4.45154 | -74.35401 | 19431 ft | 346 kts | 142° |
| 2026-04-25 11:12 | 4.43531 | -74.33626 | 20115 ft | 350 kts | 120° |
| 2026-04-25 11:13 | 4.42671 | -74.31347 | 20785 ft | 353 kts | 98° |
| 2026-04-25 11:13 | 4.42723 | -74.28898 | 21460 ft | 355 kts | 75° |
| 2026-04-25 11:13 | 4.43651 | -74.26611 | 22157 ft | 357 kts | 58° |
| 2026-04-25 11:13 | 4.45042 | -74.24540 | 22869 ft | 360 kts | 53° |
| 2026-04-25 11:14 | 4.46568 | -74.22531 | 23584 ft | 364 kts | 51° |
| 2026-04-25 11:14 | 4.48141 | -74.20529 | 24264 ft | 368 kts | 51° |
| 2026-04-25 11:14 | 4.49734 | -74.18504 | 24896 ft | 371 kts | 51° |
| 2026-04-25 11:14 | 4.51327 | -74.16459 | 25561 ft | 373 kts | 52° |
| 2026-04-25 11:15 | 4.52899 | -74.14418 | 26183 ft | 376 kts | 53° |
| 2026-04-25 11:15 | 4.54495 | -74.12325 | 26815 ft | 380 kts | 53° |
| 2026-04-25 11:15 | 4.56122 | -74.10176 | 27424 ft | 384 kts | 53° |
| 2026-04-25 11:15 | 4.57740 | -74.08030 | 28036 ft | 388 kts | 54° |
| 2026-04-25 11:16 | 4.61004 | -74.03682 | 29242 ft | 394 kts | 54° |
| 2026-04-25 11:16 | 4.62638 | -74.01502 | 29851 ft | 398 kts | 54° |
| 2026-04-25 11:16 | 4.64307 | -73.99275 | 30449 ft | 401 kts | 54° |
| 2026-04-25 11:17 | 4.65987 | -73.97032 | 30972 ft | 404 kts | 55° |
| 2026-04-25 11:17 | 4.67676 | -73.94777 | 31489 ft | 406 kts | 55° |
| 2026-04-25 11:17 | 4.69380 | -73.92502 | 31991 ft | 409 kts | 55° |
| 2026-04-25 11:17 | 4.71095 | -73.90211 | 32445 ft | 413 kts | 55° |
| 2026-04-25 11:18 | 4.72830 | -73.87893 | 32711 ft | 422 kts | 55° |
| 2026-04-25 11:18 | 4.74619 | -73.85501 | 32807 ft | 435 kts | 55° |
| 2026-04-25 11:18 | 4.76459 | -73.83040 | 32916 ft | 447 kts | 55° |
| 2026-04-25 11:18 | 4.78349 | -73.80514 | 33008 ft | 459 kts | 55° |
| 2026-04-25 11:19 | 4.80288 | -73.77923 | 33077 ft | 470 kts | 55° |
| 2026-04-25 11:19 | 4.82276 | -73.75268 | 33172 ft | 481 kts | 55° |
| 2026-04-25 11:19 | 4.84303 | -73.72562 | 33326 ft | 489 kts | 55° |
| 2026-04-25 11:19 | 4.86355 | -73.69823 | 33577 ft | 494 kts | 55° |
| 2026-04-25 11:20 | 4.88419 | -73.67067 | 33949 ft | 495 kts | 55° |
| 2026-04-25 11:20 | 4.90486 | -73.64308 | 34411 ft | 493 kts | 56° |
| 2026-04-25 11:20 | 4.92536 | -73.61571 | 34952 ft | 489 kts | 56° |
| 2026-04-25 11:20 | 4.94576 | -73.58847 | 35272 ft | 491 kts | 56° |
| 2026-04-25 11:21 | 4.98708 | -73.53320 | 35254 ft | 498 kts | 56° |
| 2026-04-25 11:21 | 5.02901 | -73.47711 | 35226 ft | 507 kts | 56° |
| 2026-04-25 11:22 | 5.06431 | -73.42989 | 35222 ft | 509 kts | 56° |
| 2026-04-25 11:22 | 5.11403 | -73.36339 | 35188 ft | 510 kts | 56° |
| 2026-04-25 11:23 | 5.15651 | -73.30656 | 35191 ft | 509 kts | 56° |
| 2026-04-25 11:23 | 5.19892 | -73.24982 | 35195 ft | 508 kts | 56° |
| 2026-04-25 11:24 | 5.24132 | -73.19303 | 35162 ft | 508 kts | 56° |
| 2026-04-25 11:24 | 5.28366 | -73.13631 | 35171 ft | 507 kts | 56° |
| 2026-04-25 11:25 | 5.32588 | -73.07977 | 35172 ft | 506 kts | 56° |
| 2026-04-25 11:25 | 5.36811 | -73.02320 | 35162 ft | 507 kts | 56° |
| 2026-04-25 11:26 | 5.41035 | -72.96656 | 35184 ft | 507 kts | 56° |
| 2026-04-25 11:26 | 5.45254 | -72.90998 | 35165 ft | 506 kts | 56° |
| 2026-04-25 11:27 | 5.49474 | -72.85341 | 35156 ft | 506 kts | 56° |
| 2026-04-25 11:27 | 5.52981 | -72.80637 | 35170 ft | 506 kts | 56° |
| 2026-04-25 11:28 | 5.57913 | -72.74018 | 35157 ft | 507 kts | 56° |
| 2026-04-25 11:28 | 5.62139 | -72.68349 | 35170 ft | 507 kts | 56° |
| 2026-04-25 11:29 | 5.66364 | -72.62674 | 35117 ft | 508 kts | 56° |
| 2026-04-25 11:29 | 5.70593 | -72.56996 | 35149 ft | 507 kts | 56° |
| 2026-04-25 11:30 | 5.74793 | -72.51356 | 35099 ft | 508 kts | 56° |
| 2026-04-25 11:30 | 5.79043 | -72.45646 | 35095 ft | 507 kts | 56° |
| 2026-04-25 11:31 | 5.83261 | -72.39978 | 35122 ft | 507 kts | 56° |
| 2026-04-25 11:31 | 5.87480 | -72.34305 | 35080 ft | 507 kts | 56° |
| 2026-04-25 11:32 | 5.91700 | -72.28630 | 35065 ft | 507 kts | 56° |
| 2026-04-25 11:32 | 5.95919 | -72.22956 | 35047 ft | 507 kts | 56° |
| 2026-04-25 11:33 | 6.00133 | -72.17284 | 35054 ft | 507 kts | 56° |
| 2026-04-25 11:33 | 6.04321 | -72.11648 | 35012 ft | 507 kts | 56° |
| 2026-04-25 11:34 | 6.08534 | -72.05976 | 35038 ft | 506 kts | 56° |
| 2026-04-25 11:34 | 6.12746 | -72.00303 | 35027 ft | 506 kts | 56° |
| 2026-04-25 11:35 | 6.16952 | -71.94637 | 35002 ft | 506 kts | 56° |
| 2026-04-25 11:35 | 6.21166 | -71.88959 | 35000 ft | 507 kts | 56° |
| 2026-04-25 11:36 | 6.25380 | -71.83279 | 34985 ft | 507 kts | 56° |
| 2026-04-25 11:36 | 6.29597 | -71.77592 | 34994 ft | 508 kts | 56° |
| 2026-04-25 11:37 | 6.33820 | -71.71896 | 34969 ft | 508 kts | 56° |
| 2026-04-25 11:37 | 6.38039 | -71.66205 | 34964 ft | 507 kts | 56° |
| 2026-04-25 11:38 | 6.41571 | -71.61439 | 34967 ft | 507 kts | 56° |
| 2026-04-25 11:38 | 6.45756 | -71.55789 | 34956 ft | 507 kts | 56° |
| 2026-04-25 11:39 | 6.49974 | -71.50090 | 34958 ft | 509 kts | 56° |
| 2026-04-25 11:39 | 6.54217 | -71.44358 | 34958 ft | 512 kts | 56° |
| 2026-04-25 11:40 | 6.58474 | -71.38606 | 34967 ft | 514 kts | 56° |
| 2026-04-25 11:40 | 6.62748 | -71.32829 | 34961 ft | 515 kts | 56° |
| 2026-04-25 11:41 | 6.67026 | -71.27046 | 34956 ft | 515 kts | 56° |
| 2026-04-25 11:41 | 6.71302 | -71.21262 | 34962 ft | 515 kts | 56° |
| 2026-04-25 11:42 | 6.75568 | -71.15490 | 34964 ft | 514 kts | 56° |
| 2026-04-25 11:42 | 6.79834 | -71.09717 | 34955 ft | 514 kts | 56° |
| 2026-04-25 11:43 | 6.84089 | -71.03954 | 34959 ft | 513 kts | 56° |
| 2026-04-25 11:43 | 6.88344 | -70.98190 | 34960 ft | 513 kts | 56° |
| 2026-04-25 11:44 | 6.92595 | -70.92431 | 34971 ft | 513 kts | 56° |
| 2026-04-25 11:44 | 6.96846 | -70.86668 | 34951 ft | 513 kts | 55° |
| 2026-04-25 11:45 | 7.01093 | -70.80908 | 34962 ft | 512 kts | 55° |
| 2026-04-25 11:45 | 7.05340 | -70.75149 | 34940 ft | 512 kts | 55° |
| 2026-04-25 11:46 | 7.09996 | -70.69708 | 34944 ft | 514 kts | 47° |
| 2026-04-25 11:46 | 7.14997 | -70.64565 | 34940 ft | 514 kts | 47° |
| 2026-04-25 11:47 | 7.20006 | -70.59418 | 34947 ft | 516 kts | 48° |
| 2026-04-25 11:47 | 7.25009 | -70.54224 | 34964 ft | 517 kts | 48° |
| 2026-04-25 11:48 | 7.30020 | -70.48987 | 34956 ft | 520 kts | 47° |
| 2026-04-25 11:48 | 7.35053 | -70.43731 | 34968 ft | 521 kts | 47° |
| 2026-04-25 11:49 | 7.40079 | -70.38482 | 34963 ft | 520 kts | 47° |
| 2026-04-25 11:49 | 7.45098 | -70.33238 | 34969 ft | 519 kts | 47° |
| 2026-04-25 11:50 | 7.50074 | -70.28038 | 34969 ft | 519 kts | 47° |
| 2026-04-25 11:50 | 7.55111 | -70.22771 | 34971 ft | 518 kts | 48° |
| 2026-04-25 11:51 | 7.60079 | -70.17574 | 34975 ft | 518 kts | 47° |
| 2026-04-25 11:51 | 7.65082 | -70.12340 | 34977 ft | 518 kts | 47° |
| 2026-04-25 11:52 | 7.70079 | -70.07110 | 34976 ft | 518 kts | 47° |
| 2026-04-25 11:52 | 7.75078 | -70.01876 | 34979 ft | 518 kts | 47° |
| 2026-04-25 11:53 | 7.80074 | -69.96644 | 34975 ft | 518 kts | 47° |
| 2026-04-25 11:53 | 7.85068 | -69.91412 | 34975 ft | 518 kts | 47° |
| 2026-04-25 11:54 | 7.90068 | -69.86171 | 34973 ft | 518 kts | 47° |
| 2026-04-25 11:55 | 7.97575 | -69.78299 | 34987 ft | 520 kts | 47° |
| 2026-04-25 11:55 | 8.02592 | -69.73034 | 34981 ft | 521 kts | 47° |
| 2026-04-25 11:56 | 8.07615 | -69.67763 | 34977 ft | 521 kts | 47° |
| 2026-04-25 11:56 | 8.12652 | -69.62475 | 34979 ft | 524 kts | 47° |
| 2026-04-25 11:57 | 8.17701 | -69.57171 | 34975 ft | 523 kts | 47° |
| 2026-04-25 11:57 | 8.22738 | -69.51879 | 34973 ft | 522 kts | 47° |
| 2026-04-25 11:58 | 8.27767 | -69.46592 | 34978 ft | 521 kts | 47° |
| 2026-04-25 11:58 | 8.32784 | -69.41317 | 34978 ft | 521 kts | 47° |
| 2026-04-25 11:59 | 8.37765 | -69.36076 | 34982 ft | 520 kts | 47° |
| 2026-04-25 11:59 | 8.42778 | -69.30801 | 34981 ft | 520 kts | 47° |
| 2026-04-25 12:00 | 8.50293 | -69.22888 | 34982 ft | 520 kts | 47° |
| 2026-04-25 12:01 | 8.57814 | -69.14964 | 34981 ft | 522 kts | 47° |
| 2026-04-25 12:01 | 8.62843 | -69.09663 | 34986 ft | 523 kts | 47° |
| 2026-04-25 12:02 | 8.70404 | -69.01689 | 34980 ft | 524 kts | 47° |
| 2026-04-25 12:02 | 8.75452 | -68.96362 | 34981 ft | 525 kts | 47° |
| 2026-04-25 12:03 | 8.80501 | -68.91033 | 34981 ft | 525 kts | 47° |
| 2026-04-25 12:03 | 8.85550 | -68.85700 | 34976 ft | 525 kts | 47° |
| 2026-04-25 12:04 | 8.90604 | -68.80360 | 34977 ft | 525 kts | 47° |
| 2026-04-25 12:04 | 8.95654 | -68.75023 | 34983 ft | 525 kts | 47° |
| 2026-04-25 12:05 | 9.00705 | -68.69681 | 34979 ft | 525 kts | 47° |
| 2026-04-25 12:05 | 9.05755 | -68.64339 | 34981 ft | 525 kts | 47° |
| 2026-04-25 12:06 | 9.10807 | -68.58992 | 34976 ft | 525 kts | 47° |
| 2026-04-25 12:06 | 9.15856 | -68.53646 | 34975 ft | 525 kts | 47° |
| 2026-04-25 12:07 | 9.20902 | -68.48301 | 34974 ft | 525 kts | 47° |
| 2026-04-25 12:07 | 9.25920 | -68.42983 | 34980 ft | 526 kts | 47° |
| 2026-04-25 12:08 | 9.31007 | -68.37589 | 34981 ft | 526 kts | 47° |
| 2026-04-25 12:08 | 9.36032 | -68.32260 | 34983 ft | 526 kts | 47° |
| 2026-04-25 12:09 | 9.41082 | -68.26901 | 34980 ft | 526 kts | 47° |
| 2026-04-25 12:09 | 9.46140 | -68.21531 | 34985 ft | 527 kts | 47° |
| 2026-04-25 12:10 | 9.51195 | -68.16161 | 34983 ft | 527 kts | 47° |
| 2026-04-25 12:10 | 9.56261 | -68.10778 | 34992 ft | 528 kts | 47° |
| 2026-04-25 12:11 | 9.61330 | -68.05389 | 34990 ft | 529 kts | 47° |
| 2026-04-25 12:11 | 9.66408 | -67.99988 | 34990 ft | 529 kts | 47° |
| 2026-04-25 12:12 | 9.70630 | -67.95495 | 34998 ft | 529 kts | 47° |
| 2026-04-25 12:12 | 9.76566 | -67.89176 | 35003 ft | 529 kts | 47° |
| 2026-04-25 12:13 | 9.81647 | -67.83765 | 35009 ft | 529 kts | 47° |
| 2026-04-25 12:13 | 9.86724 | -67.78354 | 35009 ft | 529 kts | 47° |
| 2026-04-25 12:14 | 9.91791 | -67.72952 | 35012 ft | 528 kts | 47° |
| 2026-04-25 12:14 | 9.96855 | -67.67551 | 35010 ft | 528 kts | 47° |
| 2026-04-25 12:15 | 10.01877 | -67.62192 | 35018 ft | 527 kts | 47° |
| 2026-04-25 12:15 | 10.06928 | -67.56798 | 35011 ft | 527 kts | 47° |
| 2026-04-25 12:16 | 10.11982 | -67.51399 | 35012 ft | 528 kts | 47° |
| 2026-04-25 12:16 | 10.17078 | -67.45953 | 35021 ft | 529 kts | 47° |
| 2026-04-25 12:17 | 10.22113 | -67.40569 | 35018 ft | 530 kts | 47° |
| 2026-04-25 12:17 | 10.27204 | -67.35123 | 35012 ft | 532 kts | 47° |
| 2026-04-25 12:18 | 10.32294 | -67.29674 | 35019 ft | 532 kts | 47° |
| 2026-04-25 12:18 | 10.37390 | -67.24217 | 35019 ft | 532 kts | 47° |
| 2026-04-25 12:19 | 10.45043 | -67.16016 | 35012 ft | 533 kts | 47° |
| 2026-04-25 12:20 | 10.50147 | -67.10543 | 35011 ft | 534 kts | 47° |
| 2026-04-25 12:20 | 10.55249 | -67.05068 | 34937 ft | 533 kts | 47° |
| 2026-04-25 12:21 | 10.60316 | -66.99571 | 34936 ft | 533 kts | 50° |
| 2026-04-25 12:21 | 10.64696 | -66.93522 | 34943 ft | 531 kts | 58° |
| 2026-04-25 12:22 | 10.68774 | -66.87268 | 34948 ft | 531 kts | 58° |
| 2026-04-25 12:22 | 10.72886 | -66.81014 | 34959 ft | 532 kts | 57° |
| 2026-04-25 12:23 | 10.77036 | -66.74774 | 34976 ft | 533 kts | 57° |
| 2026-04-25 12:23 | 10.81199 | -66.68526 | 34979 ft | 534 kts | 57° |
| 2026-04-25 12:24 | 10.85361 | -66.62271 | 34962 ft | 534 kts | 57° |
| 2026-04-25 12:24 | 10.88814 | -66.57076 | 34960 ft | 534 kts | 57° |
| 2026-04-25 12:25 | 10.92977 | -66.50806 | 34960 ft | 535 kts | 57° |
| 2026-04-25 12:25 | 10.97145 | -66.44528 | 34960 ft | 536 kts | 57° |
| 2026-04-25 12:26 | 11.01317 | -66.38237 | 34959 ft | 537 kts | 57° |
| 2026-04-25 12:26 | 11.05520 | -66.31954 | 34958 ft | 537 kts | 57° |
| 2026-04-25 12:27 | 11.09778 | -66.25703 | 34960 ft | 537 kts | 57° |
| 2026-04-25 12:27 | 11.14035 | -66.19454 | 34956 ft | 538 kts | 57° |
| 2026-04-25 12:28 | 11.18292 | -66.13180 | 34966 ft | 538 kts | 57° |
| 2026-04-25 12:28 | 11.22544 | -66.06900 | 34968 ft | 539 kts | 57° |
| 2026-04-25 12:29 | 11.26772 | -66.00653 | 34961 ft | 539 kts | 57° |
| 2026-04-25 12:29 | 11.31027 | -65.94363 | 34962 ft | 539 kts | 57° |
| 2026-04-25 12:30 | 11.35278 | -65.88076 | 34963 ft | 539 kts | 57° |
| 2026-04-25 12:30 | 11.39523 | -65.81792 | 34963 ft | 538 kts | 57° |
| 2026-04-25 12:31 | 11.43760 | -65.75518 | 34964 ft | 537 kts | 57° |
| 2026-04-25 12:31 | 11.47987 | -65.69252 | 34964 ft | 536 kts | 57° |
| 2026-04-25 12:32 | 11.52207 | -65.62989 | 34960 ft | 535 kts | 57° |
| 2026-04-25 12:32 | 11.56420 | -65.56731 | 34968 ft | 535 kts | 57° |
| 2026-04-25 12:33 | 11.60629 | -65.50475 | 34968 ft | 535 kts | 57° |
| 2026-04-25 12:33 | 11.64840 | -65.44212 | 34964 ft | 535 kts | 57° |
| 2026-04-25 12:34 | 11.69059 | -65.37958 | 34965 ft | 535 kts | 56° |
| 2026-04-25 12:34 | 11.73351 | -65.31755 | 34970 ft | 535 kts | 56° |
| 2026-04-25 12:35 | 11.77661 | -65.25563 | 34971 ft | 535 kts | 56° |
| 2026-04-25 12:35 | 11.81955 | -65.19366 | 34968 ft | 535 kts | 56° |
| 2026-04-25 12:36 | 11.86239 | -65.13163 | 34965 ft | 534 kts | 56° |
| 2026-04-25 12:36 | 11.90520 | -65.06958 | 34967 ft | 534 kts | 56° |
| 2026-04-25 12:37 | 11.94798 | -65.00754 | 34976 ft | 534 kts | 56° |
| 2026-04-25 12:37 | 11.99073 | -64.94551 | 34967 ft | 534 kts | 56° |
| 2026-04-25 12:38 | 12.03319 | -64.88388 | 34967 ft | 534 kts | 56° |
| 2026-04-25 12:38 | 12.07589 | -64.82186 | 34969 ft | 533 kts | 56° |
| 2026-04-25 12:39 | 12.11854 | -64.75986 | 34969 ft | 533 kts | 56° |
| 2026-04-25 12:39 | 12.16113 | -64.69791 | 34967 ft | 533 kts | 56° |
| 2026-04-25 12:40 | 12.20377 | -64.63586 | 34968 ft | 533 kts | 56° |
| 2026-04-25 12:40 | 12.24634 | -64.57386 | 34973 ft | 533 kts | 56° |
| 2026-04-25 12:41 | 12.28897 | -64.51172 | 34975 ft | 534 kts | 56° |
| 2026-04-25 12:41 | 12.33159 | -64.44957 | 34974 ft | 534 kts | 56° |
| 2026-04-25 12:42 | 12.37420 | -64.38728 | 34973 ft | 534 kts | 57° |
| 2026-04-25 12:42 | 12.41649 | -64.32470 | 34972 ft | 535 kts | 57° |
| 2026-04-25 12:43 | 12.45863 | -64.26208 | 34973 ft | 535 kts | 57° |
| 2026-04-25 12:43 | 12.52198 | -64.16804 | 34975 ft | 535 kts | 57° |
| 2026-04-25 12:44 | 12.56431 | -64.10523 | 34975 ft | 536 kts | 57° |
| 2026-04-25 12:45 | 12.62785 | -64.01082 | 34975 ft | 537 kts | 57° |
| 2026-04-25 12:45 | 12.69143 | -63.91627 | 34974 ft | 538 kts | 57° |
| 2026-04-25 12:46 | 12.73381 | -63.85318 | 34979 ft | 538 kts | 57° |
| 2026-04-25 12:46 | 12.77617 | -63.79007 | 34983 ft | 537 kts | 57° |
| 2026-04-25 12:47 | 12.81856 | -63.72696 | 34983 ft | 538 kts | 57° |
| 2026-04-25 12:47 | 12.86078 | -63.66430 | 34982 ft | 538 kts | 57° |
| 2026-04-25 12:48 | 12.90694 | -63.60376 | 34981 ft | 540 kts | 51° |
| 2026-04-25 12:48 | 12.95511 | -63.54464 | 34979 ft | 540 kts | 51° |
| 2026-04-25 12:49 | 13.00320 | -63.48544 | 34978 ft | 540 kts | 51° |
| 2026-04-25 12:49 | 13.05107 | -63.42595 | 34981 ft | 541 kts | 52° |
| 2026-04-25 12:50 | 13.09879 | -63.36636 | 34982 ft | 541 kts | 52° |
| 2026-04-25 12:50 | 13.14643 | -63.30682 | 34978 ft | 540 kts | 52° |
| 2026-04-25 12:51 | 13.19416 | -63.24718 | 34981 ft | 540 kts | 52° |
| 2026-04-25 12:51 | 13.24184 | -63.18757 | 34981 ft | 540 kts | 52° |
| 2026-04-25 12:52 | 13.28949 | -63.12797 | 34973 ft | 540 kts | 52° |
| 2026-04-25 12:52 | 13.33714 | -63.06832 | 34975 ft | 540 kts | 52° |
| 2026-04-25 12:53 | 13.38479 | -63.00863 | 34986 ft | 541 kts | 52° |
| 2026-04-25 12:53 | 13.43251 | -62.94880 | 34983 ft | 541 kts | 52° |
| 2026-04-25 12:54 | 13.48026 | -62.88891 | 34983 ft | 542 kts | 52° |
| 2026-04-25 12:54 | 13.52799 | -62.82899 | 34988 ft | 542 kts | 52° |
| 2026-04-25 12:55 | 13.56773 | -62.77909 | 34986 ft | 543 kts | 52° |
| 2026-04-25 12:55 | 13.62357 | -62.70889 | 34989 ft | 543 kts | 52° |
| 2026-04-25 12:56 | 13.67142 | -62.64870 | 34986 ft | 544 kts | 52° |
| 2026-04-25 12:56 | 13.71930 | -62.58843 | 34988 ft | 545 kts | 52° |
| 2026-04-25 12:57 | 13.76723 | -62.52805 | 34989 ft | 545 kts | 52° |
| 2026-04-25 12:57 | 13.81519 | -62.46759 | 34990 ft | 545 kts | 52° |
| 2026-04-25 12:58 | 13.86315 | -62.40709 | 34987 ft | 546 kts | 52° |
| 2026-04-25 12:58 | 13.91109 | -62.34656 | 34989 ft | 546 kts | 52° |
| 2026-04-25 12:59 | 13.95874 | -62.28636 | 34987 ft | 546 kts | 52° |
| 2026-04-25 12:59 | 14.00669 | -62.22574 | 34991 ft | 546 kts | 52° |
| 2026-04-25 13:00 | 14.03881 | -62.18511 | 34991 ft | 547 kts | 52° |
| 2026-04-25 13:00 | 14.10269 | -62.10424 | 34993 ft | 547 kts | 52° |
| 2026-04-25 13:01 | 14.15068 | -62.04343 | 34994 ft | 547 kts | 52° |
| 2026-04-25 13:01 | 14.19866 | -61.98259 | 34991 ft | 547 kts | 52° |
| 2026-04-25 13:02 | 14.24659 | -61.92176 | 34993 ft | 547 kts | 52° |
| 2026-04-25 13:02 | 14.29459 | -61.86081 | 34995 ft | 547 kts | 52° |
| 2026-04-25 13:03 | 14.34257 | -61.79984 | 34995 ft | 547 kts | 52° |
| 2026-04-25 13:03 | 14.39043 | -61.73896 | 34995 ft | 547 kts | 52° |
| 2026-04-25 13:04 | 14.43843 | -61.67787 | 34992 ft | 547 kts | 52° |
| 2026-04-25 13:04 | 14.48631 | -61.61688 | 35000 ft | 547 kts | 51° |
| 2026-04-25 13:05 | 14.53426 | -61.55575 | 34993 ft | 548 kts | 51° |
| 2026-04-25 13:05 | 14.58221 | -61.49458 | 34996 ft | 548 kts | 51° |
| 2026-04-25 13:06 | 14.63020 | -61.43331 | 34997 ft | 549 kts | 51° |
| 2026-04-25 13:06 | 14.67820 | -61.37198 | 34996 ft | 549 kts | 51° |
| 2026-04-25 13:07 | 14.72618 | -61.31064 | 34996 ft | 549 kts | 52° |
| 2026-04-25 13:07 | 14.77411 | -61.24928 | 34999 ft | 549 kts | 51° |
| 2026-04-25 13:08 | 14.82209 | -61.18783 | 35003 ft | 549 kts | 51° |
| 2026-04-25 13:08 | 14.87009 | -61.12630 | 34998 ft | 549 kts | 51° |
| 2026-04-25 13:09 | 14.91801 | -61.06486 | 35001 ft | 549 kts | 51° |
| 2026-04-25 13:09 | 14.96597 | -61.00336 | 34998 ft | 549 kts | 52° |
| 2026-04-25 13:10 | 15.01355 | -60.94227 | 35014 ft | 549 kts | 51° |
| 2026-04-25 13:10 | 15.06146 | -60.88069 | 35006 ft | 550 kts | 51° |
| 2026-04-25 13:11 | 15.10943 | -60.81898 | 35002 ft | 550 kts | 51° |
| 2026-04-25 13:11 | 15.15741 | -60.75722 | 35003 ft | 551 kts | 51° |
| 2026-04-25 13:12 | 15.19763 | -60.70541 | 34999 ft | 551 kts | 51° |
| 2026-04-25 13:12 | 15.23754 | -60.65396 | 35007 ft | 551 kts | 52° |
| 2026-04-25 13:13 | 15.29364 | -60.58158 | 35011 ft | 552 kts | 51° |
| 2026-04-25 13:13 | 15.34167 | -60.51955 | 35009 ft | 552 kts | 51° |
| 2026-04-25 13:14 | 15.38972 | -60.45746 | 35000 ft | 553 kts | 51° |
| 2026-04-25 13:14 | 15.43782 | -60.39526 | 35004 ft | 553 kts | 51° |
| 2026-04-25 13:15 | 15.48591 | -60.33300 | 35008 ft | 553 kts | 51° |
| 2026-04-25 13:15 | 15.53369 | -60.27111 | 35016 ft | 553 kts | 51° |
| 2026-04-25 13:16 | 15.58178 | -60.20874 | 35010 ft | 554 kts | 51° |
| 2026-04-25 13:16 | 15.62992 | -60.14628 | 35004 ft | 554 kts | 51° |
| 2026-04-25 13:17 | 15.67801 | -60.08382 | 35009 ft | 554 kts | 51° |
| 2026-04-25 13:17 | 15.72613 | -60.02127 | 35008 ft | 554 kts | 51° |
| 2026-04-25 13:18 | 15.77420 | -59.95872 | 35009 ft | 554 kts | 51° |
| 2026-04-25 13:18 | 15.82233 | -59.89605 | 35005 ft | 555 kts | 51° |
| 2026-04-25 13:19 | 15.87035 | -59.83348 | 35004 ft | 554 kts | 51° |
| 2026-04-25 13:19 | 15.91022 | -59.78147 | 35010 ft | 553 kts | 52° |
| 2026-04-25 13:20 | 15.96622 | -59.70837 | 35011 ft | 553 kts | 52° |
| 2026-04-25 13:20 | 16.01406 | -59.64586 | 35011 ft | 552 kts | 52° |
| 2026-04-25 13:21 | 16.06189 | -59.58331 | 35019 ft | 553 kts | 51° |
| 2026-04-25 13:21 | 16.10970 | -59.52072 | 35013 ft | 553 kts | 51° |
| 2026-04-25 13:22 | 16.15752 | -59.45808 | 35017 ft | 553 kts | 51° |
| 2026-04-25 13:23 | 16.22919 | -59.36411 | 35012 ft | 553 kts | 51° |
| 2026-04-25 13:23 | 16.27697 | -59.30139 | 35015 ft | 553 kts | 52° |
| 2026-04-25 13:24 | 16.32440 | -59.23906 | 35017 ft | 553 kts | 51° |
| 2026-04-25 13:24 | 16.37214 | -59.17625 | 35017 ft | 553 kts | 51° |
| 2026-04-25 13:25 | 16.41991 | -59.11335 | 35023 ft | 554 kts | 51° |
| 2026-04-25 13:25 | 16.46767 | -59.05043 | 35021 ft | 554 kts | 51° |
| 2026-04-25 13:26 | 16.51540 | -58.98747 | 35018 ft | 553 kts | 52° |
| 2026-04-25 13:26 | 16.56311 | -58.92449 | 35020 ft | 553 kts | 51° |
| 2026-04-25 13:27 | 16.61076 | -58.86153 | 35022 ft | 554 kts | 51° |
| 2026-04-25 13:27 | 16.65844 | -58.79847 | 35020 ft | 554 kts | 51° |
| 2026-04-25 13:28 | 16.70614 | -58.73534 | 35023 ft | 554 kts | 51° |
| 2026-04-25 13:28 | 16.75379 | -58.67220 | 35022 ft | 554 kts | 51° |
| 2026-04-25 13:29 | 16.80146 | -58.60900 | 35030 ft | 554 kts | 51° |
| 2026-04-25 13:29 | 16.84915 | -58.54569 | 35025 ft | 555 kts | 51° |
| 2026-04-25 13:30 | 16.92076 | -58.45054 | 35021 ft | 556 kts | 51° |
| 2026-04-25 13:31 | 16.99234 | -58.35531 | 35026 ft | 555 kts | 51° |
| 2026-04-25 13:31 | 17.03997 | -58.29185 | 35038 ft | 555 kts | 51° |
| 2026-04-25 13:32 | 17.08765 | -58.22827 | 35025 ft | 556 kts | 51° |
| 2026-04-25 13:32 | 17.13540 | -58.16455 | 35023 ft | 556 kts | 51° |
| 2026-04-25 13:33 | 17.18305 | -58.10090 | 35030 ft | 556 kts | 51° |
| 2026-04-25 13:33 | 17.23070 | -58.03718 | 35028 ft | 556 kts | 51° |
| 2026-04-25 13:34 | 17.27802 | -57.97385 | 35039 ft | 556 kts | 51° |
| 2026-04-25 13:34 | 17.32569 | -57.90999 | 35033 ft | 557 kts | 51° |
| 2026-04-25 13:35 | 17.37336 | -57.84606 | 35037 ft | 557 kts | 51° |
| 2026-04-25 13:35 | 17.42105 | -57.78206 | 35023 ft | 558 kts | 51° |
| 2026-04-25 13:36 | 17.46904 | -57.71759 | 35029 ft | 558 kts | 51° |
| 2026-04-25 13:36 | 17.51641 | -57.65388 | 35041 ft | 558 kts | 51° |
| 2026-04-25 13:37 | 17.56407 | -57.58972 | 35031 ft | 558 kts | 51° |
| 2026-04-25 13:37 | 17.61177 | -57.52544 | 35040 ft | 559 kts | 51° |
| 2026-04-25 13:38 | 17.65950 | -57.46108 | 35039 ft | 559 kts | 51° |
| 2026-04-25 13:38 | 17.70724 | -57.39666 | 35038 ft | 559 kts | 51° |
| 2026-04-25 13:39 | 17.75493 | -57.33223 | 35045 ft | 559 kts | 51° |
| 2026-04-25 13:39 | 17.80258 | -57.26777 | 35045 ft | 560 kts | 51° |
| 2026-04-25 13:40 | 17.85028 | -57.20318 | 35043 ft | 560 kts | 51° |
| 2026-04-25 13:40 | 17.89796 | -57.13855 | 35041 ft | 560 kts | 51° |
| 2026-04-25 13:41 | 17.94563 | -57.07386 | 35039 ft | 559 kts | 52° |
| 2026-04-25 13:41 | 17.99240 | -57.00862 | 35041 ft | 559 kts | 56° |
| 2026-04-25 13:42 | 18.03015 | -56.93728 | 35054 ft | 560 kts | 65° |
| 2026-04-25 13:42 | 18.06305 | -56.86307 | 35043 ft | 561 kts | 65° |
| 2026-04-25 13:43 | 18.09608 | -56.78883 | 35044 ft | 560 kts | 65° |
| 2026-04-25 13:43 | 18.12946 | -56.71486 | 35039 ft | 560 kts | 65° |
| 2026-04-25 13:44 | 18.16299 | -56.64098 | 35045 ft | 559 kts | 65° |
| 2026-04-25 13:44 | 18.19644 | -56.56721 | 35042 ft | 558 kts | 65° |
| 2026-04-25 13:45 | 18.22977 | -56.49350 | 35047 ft | 557 kts | 65° |
| 2026-04-25 13:45 | 18.26300 | -56.41988 | 35037 ft | 557 kts | 65° |
| 2026-04-25 13:46 | 18.29595 | -56.34677 | 35045 ft | 556 kts | 65° |
| 2026-04-25 13:46 | 18.32906 | -56.27322 | 35051 ft | 556 kts | 65° |
| 2026-04-25 13:47 | 18.36216 | -56.19963 | 35051 ft | 556 kts | 65° |
| 2026-04-25 13:47 | 18.39522 | -56.12602 | 35054 ft | 556 kts | 65° |
| 2026-04-25 13:48 | 18.42827 | -56.05235 | 35050 ft | 557 kts | 65° |
| 2026-04-25 13:48 | 18.46135 | -55.97852 | 35051 ft | 557 kts | 65° |
| 2026-04-25 13:49 | 18.49439 | -55.90468 | 35050 ft | 558 kts | 65° |
| 2026-04-25 13:49 | 18.52744 | -55.83074 | 35053 ft | 558 kts | 65° |
| 2026-04-25 13:50 | 18.56048 | -55.75671 | 35051 ft | 558 kts | 65° |
| 2026-04-25 13:50 | 18.59352 | -55.68259 | 35042 ft | 559 kts | 65° |
| 2026-04-25 13:51 | 18.62656 | -55.60838 | 35059 ft | 560 kts | 65° |
| 2026-04-25 13:51 | 18.65964 | -55.53401 | 35059 ft | 560 kts | 65° |
| 2026-04-25 13:52 | 18.69269 | -55.45958 | 35058 ft | 560 kts | 65° |
| 2026-04-25 13:52 | 18.72568 | -55.38521 | 35050 ft | 559 kts | 65° |
| 2026-04-25 13:53 | 18.75861 | -55.31088 | 35053 ft | 559 kts | 65° |
| 2026-04-25 13:53 | 18.79126 | -55.23707 | 35047 ft | 559 kts | 65° |
| 2026-04-25 13:54 | 18.82412 | -55.16268 | 35061 ft | 560 kts | 65° |
| 2026-04-25 13:54 | 18.85700 | -55.08817 | 35052 ft | 560 kts | 65° |
| 2026-04-25 13:55 | 18.88985 | -55.01365 | 35062 ft | 560 kts | 65° |
| 2026-04-25 13:55 | 18.92268 | -54.93905 | 35061 ft | 560 kts | 65° |
| 2026-04-25 13:56 | 18.95543 | -54.86453 | 35053 ft | 559 kts | 65° |
| 2026-04-25 13:56 | 18.98822 | -54.78984 | 35053 ft | 561 kts | 65° |
| 2026-04-25 13:57 | 19.02103 | -54.71500 | 35071 ft | 561 kts | 65° |
| 2026-04-25 13:57 | 19.05383 | -54.64010 | 35054 ft | 562 kts | 65° |
| 2026-04-25 13:58 | 19.08660 | -54.56515 | 35061 ft | 562 kts | 65° |
| 2026-04-25 13:58 | 19.11935 | -54.49015 | 35065 ft | 561 kts | 65° |
| 2026-04-25 13:59 | 19.14650 | -54.42789 | 35072 ft | 561 kts | 65° |
| 2026-04-25 13:59 | 19.17918 | -54.35287 | 35059 ft | 562 kts | 65° |
| 2026-04-25 14:00 | 19.21719 | -54.26551 | 35060 ft | 563 kts | 65° |
| 2026-04-25 14:00 | 19.24460 | -54.20241 | 35073 ft | 563 kts | 65° |
| 2026-04-25 14:01 | 19.27729 | -54.12705 | 35059 ft | 563 kts | 65° |
| 2026-04-25 14:01 | 19.30991 | -54.05178 | 35058 ft | 563 kts | 65° |
| 2026-04-25 14:02 | 19.34257 | -53.97630 | 35057 ft | 564 kts | 65° |
| 2026-04-25 14:02 | 19.37496 | -53.90134 | 35064 ft | 564 kts | 65° |
| 2026-04-25 14:03 | 19.40759 | -53.82573 | 35064 ft | 564 kts | 65° |
| 2026-04-25 14:03 | 19.44041 | -53.74958 | 35067 ft | 565 kts | 65° |
| 2026-04-25 14:04 | 19.47299 | -53.67387 | 35062 ft | 564 kts | 65° |
| 2026-04-25 14:04 | 19.50529 | -53.59871 | 35077 ft | 564 kts | 65° |
| 2026-04-25 14:05 | 19.53781 | -53.52295 | 35066 ft | 565 kts | 65° |
| 2026-04-25 14:05 | 19.57033 | -53.44707 | 35071 ft | 566 kts | 65° |
| 2026-04-25 14:06 | 19.60286 | -53.37108 | 35067 ft | 566 kts | 65° |
| 2026-04-25 14:06 | 19.63539 | -53.29498 | 35069 ft | 567 kts | 65° |
| 2026-04-25 14:07 | 19.66790 | -53.21880 | 35064 ft | 567 kts | 65° |
| 2026-04-25 14:07 | 19.70037 | -53.14261 | 35068 ft | 567 kts | 65° |
| 2026-04-25 14:08 | 19.73285 | -53.06630 | 35070 ft | 567 kts | 65° |
| 2026-04-25 14:08 | 19.76531 | -52.98994 | 35063 ft | 568 kts | 65° |
| 2026-04-25 14:09 | 19.79772 | -52.91359 | 35072 ft | 567 kts | 65° |
| 2026-04-25 14:09 | 19.83007 | -52.83725 | 35070 ft | 567 kts | 65° |
| 2026-04-25 14:10 | 19.86243 | -52.76080 | 35068 ft | 567 kts | 65° |
| 2026-04-25 14:10 | 19.89475 | -52.68434 | 35068 ft | 568 kts | 65° |
| 2026-04-25 14:11 | 19.92707 | -52.60776 | 35072 ft | 568 kts | 65° |
| 2026-04-25 14:11 | 19.95935 | -52.53116 | 35068 ft | 568 kts | 65° |
| 2026-04-25 14:12 | 19.99161 | -52.45451 | 35069 ft | 568 kts | 65° |
| 2026-04-25 14:12 | 20.02383 | -52.37783 | 35071 ft | 568 kts | 65° |
| 2026-04-25 14:13 | 20.05578 | -52.30170 | 35069 ft | 567 kts | 65° |
| 2026-04-25 14:13 | 20.08789 | -52.22508 | 35071 ft | 567 kts | 65° |
| 2026-04-25 14:14 | 20.11995 | -52.14845 | 35071 ft | 567 kts | 65° |
| 2026-04-25 14:14 | 20.15199 | -52.07177 | 35071 ft | 567 kts | 65° |
| 2026-04-25 14:15 | 20.18398 | -51.99511 | 35080 ft | 567 kts | 65° |
| 2026-04-25 14:15 | 20.21595 | -51.91837 | 35074 ft | 567 kts | 65° |
| 2026-04-25 14:16 | 20.24793 | -51.84151 | 35068 ft | 568 kts | 65° |
| 2026-04-25 14:16 | 20.27987 | -51.76461 | 35072 ft | 568 kts | 65° |
| 2026-04-25 14:17 | 20.31179 | -51.68766 | 35071 ft | 568 kts | 65° |
| 2026-04-25 14:17 | 20.34370 | -51.61063 | 35071 ft | 568 kts | 65° |
| 2026-04-25 14:18 | 20.37560 | -51.53350 | 35070 ft | 569 kts | 65° |
| 2026-04-25 14:18 | 20.40748 | -51.45631 | 35071 ft | 569 kts | 65° |
| 2026-04-25 14:19 | 20.43934 | -51.37903 | 35074 ft | 569 kts | 65° |
| 2026-04-25 14:19 | 20.47119 | -51.30169 | 35071 ft | 570 kts | 65° |
| 2026-04-25 14:20 | 20.50300 | -51.22433 | 35072 ft | 569 kts | 65° |
| 2026-04-25 14:20 | 20.53478 | -51.14690 | 35071 ft | 570 kts | 65° |
| 2026-04-25 14:21 | 20.56658 | -51.06934 | 35075 ft | 571 kts | 65° |
| 2026-04-25 14:21 | 20.59838 | -50.99165 | 35074 ft | 571 kts | 65° |
| 2026-04-25 14:22 | 20.63017 | -50.91386 | 35073 ft | 572 kts | 65° |
| 2026-04-25 14:22 | 20.66191 | -50.83606 | 35074 ft | 572 kts | 65° |
| 2026-04-25 14:23 | 20.69364 | -50.75819 | 35074 ft | 572 kts | 65° |
| 2026-04-25 14:23 | 20.72541 | -50.68011 | 35074 ft | 573 kts | 65° |
| 2026-04-25 14:24 | 20.75715 | -50.60196 | 35074 ft | 573 kts | 65° |
| 2026-04-25 14:24 | 20.78885 | -50.52380 | 35073 ft | 573 kts | 65° |
| 2026-04-25 14:25 | 20.82048 | -50.44567 | 35074 ft | 573 kts | 65° |
| 2026-04-25 14:25 | 20.85212 | -50.36742 | 35072 ft | 573 kts | 65° |
| 2026-04-25 14:26 | 20.88354 | -50.28959 | 35083 ft | 573 kts | 65° |
| 2026-04-25 14:26 | 20.91512 | -50.21123 | 35078 ft | 574 kts | 65° |
| 2026-04-25 14:27 | 20.94666 | -50.13285 | 35079 ft | 574 kts | 65° |
| 2026-04-25 14:27 | 20.97816 | -50.05446 | 35087 ft | 573 kts | 65° |
| 2026-04-25 14:28 | 21.00698 | -49.97477 | 35069 ft | 575 kts | 73° |
| 2026-04-25 14:28 | 21.02639 | -49.89178 | 35083 ft | 575 kts | 76° |
| 2026-04-25 14:29 | 21.04487 | -49.80840 | 35081 ft | 576 kts | 76° |
| 2026-04-25 14:29 | 21.06373 | -49.72512 | 35071 ft | 576 kts | 75° |
| 2026-04-25 14:30 | 21.08294 | -49.64190 | 35084 ft | 576 kts | 75° |
| 2026-04-25 14:30 | 21.11168 | -49.51762 | 35083 ft | 576 kts | 75° |
| 2026-04-25 14:31 | 21.13084 | -49.43431 | 35082 ft | 576 kts | 75° |
| 2026-04-25 14:31 | 21.15005 | -49.35043 | 35081 ft | 576 kts | 75° |
| 2026-04-25 14:32 | 21.16896 | -49.26767 | 35078 ft | 576 kts | 75° |
| 2026-04-25 14:32 | 21.18795 | -49.18437 | 35084 ft | 576 kts | 75° |
| 2026-04-25 14:33 | 21.20692 | -49.10098 | 35099 ft | 576 kts | 75° |
| 2026-04-25 14:33 | 21.22583 | -49.01761 | 35080 ft | 576 kts | 75° |
| 2026-04-25 14:34 | 21.24472 | -48.93417 | 35078 ft | 576 kts | 75° |
| 2026-04-25 14:34 | 21.26355 | -48.85082 | 35080 ft | 575 kts | 75° |
| 2026-04-25 14:35 | 21.28232 | -48.76750 | 35081 ft | 575 kts | 75° |
| 2026-04-25 14:35 | 21.30106 | -48.68411 | 35083 ft | 575 kts | 75° |
| 2026-04-25 14:36 | 21.31975 | -48.60073 | 35095 ft | 575 kts | 75° |
| 2026-04-25 14:36 | 21.33839 | -48.51736 | 35087 ft | 575 kts | 75° |
| 2026-04-25 14:37 | 21.35701 | -48.43391 | 35077 ft | 575 kts | 75° |
| 2026-04-25 14:37 | 21.37559 | -48.35042 | 35082 ft | 575 kts | 75° |
| 2026-04-25 14:38 | 21.39411 | -48.26698 | 35088 ft | 575 kts | 75° |
| 2026-04-25 14:38 | 21.41259 | -48.18351 | 35088 ft | 575 kts | 75° |
| 2026-04-25 14:39 | 21.43101 | -48.10008 | 35087 ft | 575 kts | 75° |
| 2026-04-25 14:39 | 21.44942 | -48.01654 | 35088 ft | 575 kts | 75° |
| 2026-04-25 14:40 | 21.46765 | -47.93356 | 35089 ft | 575 kts | 75° |
| 2026-04-25 14:40 | 21.48598 | -47.84995 | 35091 ft | 575 kts | 75° |
| 2026-04-25 14:41 | 21.50426 | -47.76635 | 35090 ft | 576 kts | 75° |
| 2026-04-25 14:41 | 21.52253 | -47.68260 | 35110 ft | 576 kts | 75° |
| 2026-04-25 14:42 | 21.53472 | -47.62657 | 35099 ft | 576 kts | 75° |
| 2026-04-25 14:42 | 21.55893 | -47.51508 | 35091 ft | 576 kts | 75° |
| 2026-04-25 14:43 | 21.57707 | -47.43126 | 35093 ft | 576 kts | 75° |
| 2026-04-25 14:43 | 21.59517 | -47.34741 | 35089 ft | 576 kts | 75° |
| 2026-04-25 14:44 | 21.61324 | -47.26351 | 35091 ft | 576 kts | 75° |
| 2026-04-25 14:44 | 21.63126 | -47.17960 | 35098 ft | 576 kts | 75° |
| 2026-04-25 14:45 | 21.64926 | -47.09561 | 35090 ft | 576 kts | 75° |
| 2026-04-25 14:45 | 21.66718 | -47.01172 | 35093 ft | 576 kts | 75° |
| 2026-04-25 14:46 | 21.68205 | -46.94196 | 35092 ft | 576 kts | 75° |
| 2026-04-25 14:46 | 21.70293 | -46.84377 | 35093 ft | 576 kts | 75° |
| 2026-04-25 14:47 | 21.71484 | -46.78761 | 35092 ft | 576 kts | 75° |
| 2026-04-25 14:47 | 21.73550 | -46.68995 | 35099 ft | 576 kts | 75° |
| 2026-04-25 14:48 | 21.75324 | -46.60588 | 35094 ft | 576 kts | 75° |
| 2026-04-25 14:48 | 21.77093 | -46.52179 | 35096 ft | 576 kts | 75° |
| 2026-04-25 14:49 | 21.78857 | -46.43776 | 35097 ft | 576 kts | 75° |
| 2026-04-25 14:49 | 21.80617 | -46.35370 | 35089 ft | 576 kts | 75° |
| 2026-04-25 14:50 | 21.82372 | -46.26959 | 35104 ft | 576 kts | 75° |
| 2026-04-25 14:50 | 21.84126 | -46.18535 | 35100 ft | 577 kts | 75° |
| 2026-04-25 14:51 | 21.85875 | -46.10113 | 35097 ft | 577 kts | 75° |
| 2026-04-25 14:51 | 21.87620 | -46.01687 | 35101 ft | 577 kts | 75° |
| 2026-04-25 14:52 | 21.89360 | -45.93264 | 35098 ft | 577 kts | 75° |
| 2026-04-25 14:52 | 21.90803 | -45.86258 | 35119 ft | 577 kts | 75° |
| 2026-04-25 14:53 | 21.92830 | -45.76392 | 35099 ft | 577 kts | 75° |
| 2026-04-25 14:53 | 21.94560 | -45.67946 | 35104 ft | 577 kts | 75° |
| 2026-04-25 14:54 | 21.96285 | -45.59499 | 35104 ft | 578 kts | 75° |
| 2026-04-25 14:54 | 21.98008 | -45.51044 | 35103 ft | 578 kts | 75° |
| 2026-04-25 14:55 | 21.99725 | -45.42593 | 35114 ft | 578 kts | 75° |
| 2026-04-25 14:55 | 22.01439 | -45.34134 | 35103 ft | 578 kts | 75° |
| 2026-04-25 14:56 | 22.03149 | -45.25669 | 35104 ft | 578 kts | 75° |
| 2026-04-25 14:56 | 22.04855 | -45.17199 | 35097 ft | 578 kts | 75° |
| 2026-04-25 14:57 | 22.06556 | -45.08736 | 35104 ft | 578 kts | 75° |
| 2026-04-25 14:57 | 22.08252 | -45.00267 | 35114 ft | 578 kts | 75° |
| 2026-04-25 14:58 | 22.09945 | -44.91793 | 35103 ft | 578 kts | 75° |
| 2026-04-25 14:58 | 22.11634 | -44.83315 | 35100 ft | 578 kts | 75° |
| 2026-04-25 14:59 | 22.13307 | -44.74895 | 35104 ft | 578 kts | 75° |
| 2026-04-25 14:59 | 22.14986 | -44.66421 | 35104 ft | 578 kts | 75° |
| 2026-04-25 15:00 | 22.16661 | -44.57942 | 35107 ft | 578 kts | 75° |
| 2026-04-25 15:00 | 22.18331 | -44.49459 | 35106 ft | 578 kts | 75° |
| 2026-04-25 15:01 | 22.19997 | -44.40980 | 35110 ft | 578 kts | 75° |
| 2026-04-25 15:01 | 22.21659 | -44.32494 | 35108 ft | 578 kts | 75° |
| 2026-04-25 15:02 | 22.23317 | -44.24002 | 35107 ft | 578 kts | 75° |
| 2026-04-25 15:02 | 22.24971 | -44.15507 | 35105 ft | 579 kts | 75° |
| 2026-04-25 15:03 | 22.26621 | -44.07009 | 35110 ft | 579 kts | 75° |
| 2026-04-25 15:03 | 22.28268 | -43.98504 | 35109 ft | 579 kts | 75° |
| 2026-04-25 15:04 | 22.29912 | -43.89986 | 35113 ft | 580 kts | 75° |
| 2026-04-25 15:04 | 22.31553 | -43.81458 | 35117 ft | 580 kts | 75° |
| 2026-04-25 15:05 | 22.33190 | -43.72926 | 35114 ft | 580 kts | 75° |
| 2026-04-25 15:06 | 22.35638 | -43.60121 | 35115 ft | 581 kts | 76° |
| 2026-04-25 15:06 | 22.37266 | -43.51571 | 35110 ft | 581 kts | 76° |
| 2026-04-25 15:07 | 22.38890 | -43.43019 | 35116 ft | 581 kts | 76° |
| 2026-04-25 15:07 | 22.40499 | -43.34523 | 35114 ft | 581 kts | 76° |
| 2026-04-25 15:08 | 22.42115 | -43.25962 | 35100 ft | 581 kts | 76° |
| 2026-04-25 15:08 | 22.43724 | -43.17408 | 35114 ft | 581 kts | 76° |
| 2026-04-25 15:09 | 22.45331 | -43.08845 | 35113 ft | 581 kts | 76° |
| 2026-04-25 15:09 | 22.47730 | -42.96007 | 35116 ft | 581 kts | 76° |
| 2026-04-25 15:10 | 22.49324 | -42.87446 | 35115 ft | 581 kts | 76° |
| 2026-04-25 15:11 | 22.51707 | -42.74597 | 35115 ft | 581 kts | 76° |
| 2026-04-25 15:11 | 22.53291 | -42.66025 | 35115 ft | 581 kts | 76° |
| 2026-04-25 15:12 | 22.55658 | -42.53166 | 35115 ft | 581 kts | 76° |
| 2026-04-25 15:12 | 22.56710 | -42.47426 | 35112 ft | 581 kts | 76° |
| 2026-04-25 15:13 | 22.59582 | -42.31711 | 35118 ft | 582 kts | 76° |
| 2026-04-25 15:14 | 22.61145 | -42.23116 | 35115 ft | 582 kts | 76° |
| 2026-04-25 15:14 | 22.62703 | -42.14523 | 35114 ft | 582 kts | 76° |
| 2026-04-25 15:15 | 22.64258 | -42.05919 | 35114 ft | 582 kts | 76° |
| 2026-04-25 15:15 | 22.65808 | -41.97319 | 35118 ft | 582 kts | 76° |
| 2026-04-25 15:16 | 22.67354 | -41.88707 | 35120 ft | 583 kts | 76° |
| 2026-04-25 15:16 | 22.69667 | -41.75780 | 35126 ft | 583 kts | 76° |
| 2026-04-25 15:17 | 22.71970 | -41.62839 | 35120 ft | 584 kts | 76° |
| 2026-04-25 15:18 | 22.73502 | -41.54199 | 35111 ft | 584 kts | 76° |
| 2026-04-25 15:18 | 22.75790 | -41.41243 | 35118 ft | 583 kts | 76° |
| 2026-04-25 15:19 | 22.76795 | -41.35528 | 35118 ft | 583 kts | 76° |
| 2026-04-25 15:19 | 22.78812 | -41.24026 | 35121 ft | 584 kts | 76° |
| 2026-04-25 15:20 | 22.80322 | -41.15387 | 35120 ft | 584 kts | 76° |
| 2026-04-25 15:20 | 22.81829 | -41.06733 | 35119 ft | 584 kts | 76° |
| 2026-04-25 15:21 | 22.83329 | -40.98086 | 35119 ft | 584 kts | 76° |
| 2026-04-25 15:21 | 22.84827 | -40.89426 | 35129 ft | 584 kts | 76° |
| 2026-04-25 15:22 | 22.86320 | -40.80766 | 35116 ft | 585 kts | 76° |
| 2026-04-25 15:22 | 22.87809 | -40.72097 | 35123 ft | 585 kts | 76° |
| 2026-04-25 15:23 | 22.89294 | -40.63428 | 35116 ft | 585 kts | 76° |
| 2026-04-25 15:23 | 22.90776 | -40.54743 | 35120 ft | 586 kts | 76° |
| 2026-04-25 15:24 | 22.92254 | -40.46050 | 35128 ft | 586 kts | 76° |
| 2026-04-25 15:24 | 22.93240 | -40.40235 | 35119 ft | 586 kts | 76° |
| 2026-04-25 15:25 | 22.95198 | -40.28647 | 35120 ft | 587 kts | 76° |
| 2026-04-25 15:25 | 22.96665 | -40.19931 | 35119 ft | 587 kts | 76° |
| 2026-04-25 15:26 | 22.98128 | -40.11210 | 35124 ft | 588 kts | 76° |
| 2026-04-25 15:26 | 22.99137 | -40.02400 | 35128 ft | 592 kts | 87° |
| 2026-04-25 15:27 | 22.98537 | -39.93472 | 35110 ft | 595 kts | 99° |
| 2026-04-25 15:28 | 22.95462 | -39.80444 | 35130 ft | 594 kts | 105° |
| 2026-04-25 15:28 | 22.93309 | -39.71790 | 35117 ft | 595 kts | 105° |
| 2026-04-25 15:29 | 22.91216 | -39.63102 | 35124 ft | 595 kts | 104° |
| 2026-04-25 15:29 | 22.89150 | -39.54406 | 35129 ft | 596 kts | 104° |
| 2026-04-25 15:30 | 22.87079 | -39.45709 | 35104 ft | 596 kts | 105° |
| 2026-04-25 15:30 | 22.85010 | -39.37074 | 35118 ft | 595 kts | 105° |
| 2026-04-25 15:31 | 22.82920 | -39.28394 | 35123 ft | 595 kts | 105° |
| 2026-04-25 15:31 | 22.80825 | -39.19711 | 35120 ft | 595 kts | 105° |
| 2026-04-25 15:32 | 22.78726 | -39.11034 | 35128 ft | 596 kts | 105° |
| 2026-04-25 15:32 | 22.76620 | -39.02345 | 35120 ft | 596 kts | 105° |
| 2026-04-25 15:33 | 22.73811 | -38.90792 | 35115 ft | 595 kts | 105° |
| 2026-04-25 15:33 | 22.71699 | -38.82129 | 35118 ft | 595 kts | 105° |
| 2026-04-25 15:34 | 22.69583 | -38.73475 | 35118 ft | 594 kts | 105° |
| 2026-04-25 15:34 | 22.67808 | -38.66229 | 35127 ft | 594 kts | 105° |
| 2026-04-25 15:35 | 22.64274 | -38.51854 | 35108 ft | 595 kts | 105° |
| 2026-04-25 15:36 | 22.61077 | -38.38896 | 35128 ft | 594 kts | 105° |
| 2026-04-25 15:36 | 22.58940 | -38.30264 | 35127 ft | 594 kts | 105° |
| 2026-04-25 15:37 | 22.56799 | -38.21637 | 35114 ft | 594 kts | 105° |
| 2026-04-25 15:37 | 22.54652 | -38.13007 | 35115 ft | 594 kts | 105° |
| 2026-04-25 15:38 | 22.52499 | -38.04372 | 35132 ft | 595 kts | 105° |
| 2026-04-25 15:38 | 22.50338 | -37.95727 | 35122 ft | 595 kts | 105° |
| 2026-04-25 15:39 | 22.48172 | -37.87083 | 35121 ft | 596 kts | 105° |
| 2026-04-25 15:39 | 22.45998 | -37.78429 | 35115 ft | 597 kts | 105° |
| 2026-04-25 15:40 | 22.44186 | -37.71233 | 35121 ft | 597 kts | 105° |
| 2026-04-25 15:40 | 22.41631 | -37.61111 | 35115 ft | 598 kts | 105° |
| 2026-04-25 15:41 | 22.39453 | -37.52500 | 35107 ft | 598 kts | 105° |
| 2026-04-25 15:41 | 22.37258 | -37.43848 | 35114 ft | 597 kts | 105° |
| 2026-04-25 15:42 | 22.35058 | -37.35194 | 35116 ft | 597 kts | 105° |
| 2026-04-25 15:42 | 22.32854 | -37.26547 | 35115 ft | 597 kts | 105° |
| 2026-04-25 15:43 | 22.30647 | -37.17908 | 35118 ft | 597 kts | 105° |
| 2026-04-25 15:43 | 22.28431 | -37.09255 | 35116 ft | 598 kts | 105° |
| 2026-04-25 15:44 | 22.26210 | -37.00603 | 35115 ft | 597 kts | 105° |
| 2026-04-25 15:44 | 22.23989 | -36.91971 | 35109 ft | 597 kts | 105° |
| 2026-04-25 15:45 | 22.21763 | -36.83340 | 35125 ft | 597 kts | 105° |
| 2026-04-25 15:45 | 22.19895 | -36.76116 | 35111 ft | 596 kts | 105° |
| 2026-04-25 15:46 | 22.17299 | -36.66095 | 35117 ft | 597 kts | 105° |
| 2026-04-25 15:46 | 22.15058 | -36.57468 | 35113 ft | 598 kts | 105° |
| 2026-04-25 15:47 | 22.12813 | -36.48843 | 35115 ft | 597 kts | 105° |
| 2026-04-25 15:47 | 22.10566 | -36.40233 | 35114 ft | 596 kts | 105° |
| 2026-04-25 15:48 | 22.08316 | -36.31632 | 35112 ft | 596 kts | 105° |
| 2026-04-25 15:48 | 22.06063 | -36.23035 | 35108 ft | 596 kts | 105° |
| 2026-04-25 15:49 | 22.03805 | -36.14444 | 35119 ft | 596 kts | 105° |
| 2026-04-25 15:49 | 22.01543 | -36.05850 | 35109 ft | 596 kts | 105° |
| 2026-04-25 15:50 | 21.99150 | -35.97306 | 35110 ft | 595 kts | 110° |
| 2026-04-25 15:50 | 21.96220 | -35.88971 | 35113 ft | 595 kts | 112° |
| 2026-04-25 15:51 | 21.93729 | -35.82071 | 35114 ft | 595 kts | 112° |
| 2026-04-25 15:51 | 21.90257 | -35.72358 | 35119 ft | 595 kts | 111° |
| 2026-04-25 15:52 | 21.87314 | -35.64028 | 35116 ft | 596 kts | 111° |
| 2026-04-25 15:52 | 21.84370 | -35.55688 | 35097 ft | 595 kts | 111° |
| 2026-04-25 15:53 | 21.81446 | -35.47428 | 35111 ft | 595 kts | 111° |
| 2026-04-25 15:53 | 21.78491 | -35.39111 | 35104 ft | 595 kts | 111° |
| 2026-04-25 15:54 | 21.75535 | -35.30805 | 35104 ft | 595 kts | 111° |
| 2026-04-25 15:54 | 21.72572 | -35.22495 | 35107 ft | 595 kts | 111° |
| 2026-04-25 15:55 | 21.69605 | -35.14189 | 35083 ft | 596 kts | 111° |
| 2026-04-25 15:55 | 21.66634 | -35.05886 | 35102 ft | 594 kts | 111° |
| 2026-04-25 15:56 | 21.63663 | -34.97597 | 35112 ft | 594 kts | 111° |
| 2026-04-25 15:56 | 21.60690 | -34.89317 | 35103 ft | 594 kts | 111° |
| 2026-04-25 15:57 | 21.57711 | -34.81035 | 35104 ft | 594 kts | 111° |
| 2026-04-25 15:57 | 21.54727 | -34.72755 | 35109 ft | 594 kts | 112° |
| 2026-04-25 15:58 | 21.51737 | -34.64475 | 35097 ft | 594 kts | 112° |
| 2026-04-25 15:58 | 21.48749 | -34.56211 | 35101 ft | 594 kts | 112° |
| 2026-04-25 15:59 | 21.45757 | -34.47953 | 35100 ft | 593 kts | 112° |
| 2026-04-25 15:59 | 21.42761 | -34.39697 | 35104 ft | 594 kts | 112° |
| 2026-04-25 16:00 | 21.40774 | -34.34233 | 35101 ft | 594 kts | 112° |
| 2026-04-25 16:00 | 21.36751 | -34.23184 | 35083 ft | 594 kts | 112° |
| 2026-04-25 16:01 | 21.33763 | -34.14992 | 35099 ft | 593 kts | 112° |
| 2026-04-25 16:01 | 21.30733 | -34.06703 | 35097 ft | 593 kts | 112° |
| 2026-04-25 16:02 | 21.27743 | -33.98537 | 35101 ft | 592 kts | 112° |
| 2026-04-25 16:02 | 21.24729 | -33.90319 | 35097 ft | 592 kts | 112° |
| 2026-04-25 16:03 | 21.21714 | -33.82113 | 35097 ft | 592 kts | 112° |
| 2026-04-25 16:03 | 21.18696 | -33.73912 | 35077 ft | 591 kts | 112° |
| 2026-04-25 16:04 | 21.15683 | -33.65738 | 35095 ft | 589 kts | 112° |
| 2026-04-25 16:04 | 21.12671 | -33.57583 | 35094 ft | 588 kts | 112° |
| 2026-04-25 16:05 | 21.09659 | -33.49439 | 35101 ft | 588 kts | 112° |
| 2026-04-25 16:06 | 21.05132 | -33.37226 | 35099 ft | 589 kts | 112° |
| 2026-04-25 16:06 | 21.02103 | -33.29074 | 35095 ft | 590 kts | 112° |
| 2026-04-25 16:07 | 20.99067 | -33.20915 | 35091 ft | 590 kts | 112° |
| 2026-04-25 16:07 | 20.96024 | -33.12750 | 35096 ft | 591 kts | 112° |
| 2026-04-25 16:08 | 20.92974 | -33.04582 | 35091 ft | 592 kts | 112° |
| 2026-04-25 16:08 | 20.89914 | -32.96401 | 35087 ft | 592 kts | 112° |
| 2026-04-25 16:09 | 20.86849 | -32.88219 | 35100 ft | 593 kts | 112° |
| 2026-04-25 16:09 | 20.83778 | -32.80035 | 35075 ft | 593 kts | 112° |
| 2026-04-25 16:10 | 20.80710 | -32.71873 | 35079 ft | 591 kts | 112° |
| 2026-04-25 16:10 | 20.77645 | -32.63731 | 35083 ft | 590 kts | 112° |
| 2026-04-25 16:11 | 20.74579 | -32.55602 | 35085 ft | 590 kts | 112° |
| 2026-04-25 16:11 | 20.71512 | -32.47482 | 35087 ft | 590 kts | 112° |
| 2026-04-25 16:12 | 20.68436 | -32.39353 | 35080 ft | 590 kts | 112° |
| 2026-04-25 16:12 | 20.65360 | -32.31236 | 35084 ft | 590 kts | 112° |
| 2026-04-25 16:13 | 20.62279 | -32.23118 | 35076 ft | 590 kts | 113° |
| 2026-04-25 16:13 | 20.59197 | -32.15013 | 35083 ft | 589 kts | 113° |
| 2026-04-25 16:14 | 20.56110 | -32.06907 | 35081 ft | 589 kts | 113° |
| 2026-04-25 16:14 | 20.53020 | -31.98806 | 35073 ft | 590 kts | 113° |
| 2026-04-25 16:15 | 20.49920 | -31.90694 | 35072 ft | 590 kts | 113° |
| 2026-04-25 16:15 | 20.46841 | -31.82646 | 35072 ft | 589 kts | 113° |
| 2026-04-25 16:16 | 20.43745 | -31.74565 | 35071 ft | 588 kts | 113° |
| 2026-04-25 16:16 | 20.40545 | -31.66551 | 35073 ft | 587 kts | 116° |
| 2026-04-25 16:17 | 20.37046 | -31.58696 | 35066 ft | 586 kts | 117° |
| 2026-04-25 16:17 | 20.33500 | -31.50868 | 35079 ft | 586 kts | 117° |
| 2026-04-25 16:18 | 20.30004 | -31.43015 | 35065 ft | 587 kts | 116° |
| 2026-04-25 16:18 | 20.26542 | -31.35147 | 35070 ft | 586 kts | 116° |
| 2026-04-25 16:19 | 20.23090 | -31.27297 | 35063 ft | 584 kts | 116° |
| 2026-04-25 16:19 | 20.19639 | -31.19477 | 35065 ft | 583 kts | 116° |
| 2026-04-25 16:20 | 20.15036 | -31.09080 | 35062 ft | 583 kts | 116° |
| 2026-04-25 16:21 | 20.09847 | -30.97384 | 35065 ft | 583 kts | 116° |
| 2026-04-25 16:21 | 20.06386 | -30.89597 | 35057 ft | 581 kts | 116° |
| 2026-04-25 16:22 | 20.02932 | -30.81835 | 35058 ft | 580 kts | 116° |
| 2026-04-25 16:22 | 19.99477 | -30.74080 | 35059 ft | 580 kts | 116° |
| 2026-04-25 16:23 | 19.96022 | -30.66339 | 35063 ft | 580 kts | 116° |
| 2026-04-25 16:23 | 19.92561 | -30.58594 | 35054 ft | 580 kts | 116° |
| 2026-04-25 16:24 | 19.89097 | -30.50853 | 35041 ft | 580 kts | 116° |
| 2026-04-25 16:24 | 19.85636 | -30.43128 | 35054 ft | 579 kts | 116° |
| 2026-04-25 16:25 | 19.82174 | -30.35415 | 35060 ft | 578 kts | 116° |
| 2026-04-25 16:25 | 19.78715 | -30.27716 | 35056 ft | 577 kts | 117° |
| 2026-04-25 16:26 | 19.75255 | -30.20029 | 35053 ft | 577 kts | 117° |
| 2026-04-25 16:26 | 19.71791 | -30.12342 | 35051 ft | 577 kts | 117° |
| 2026-04-25 16:27 | 19.68328 | -30.04666 | 35035 ft | 577 kts | 117° |
| 2026-04-25 16:27 | 19.64864 | -29.97000 | 35046 ft | 575 kts | 117° |
| 2026-04-25 16:28 | 19.61405 | -29.89356 | 35046 ft | 574 kts | 117° |
| 2026-04-25 16:28 | 19.57949 | -29.81728 | 35047 ft | 573 kts | 117° |
| 2026-04-25 16:29 | 19.54492 | -29.74110 | 35048 ft | 573 kts | 117° |
| 2026-04-25 16:29 | 19.51034 | -29.66498 | 35040 ft | 573 kts | 117° |
| 2026-04-25 16:30 | 19.47571 | -29.58887 | 35042 ft | 573 kts | 117° |
| 2026-04-25 16:30 | 19.44110 | -29.51288 | 35051 ft | 572 kts | 117° |
| 2026-04-25 16:31 | 19.40648 | -29.43699 | 35041 ft | 572 kts | 117° |
| 2026-04-25 16:31 | 19.37185 | -29.36117 | 35041 ft | 572 kts | 117° |
| 2026-04-25 16:32 | 19.33719 | -29.28540 | 35037 ft | 572 kts | 117° |
| 2026-04-25 16:32 | 19.30250 | -29.20966 | 35044 ft | 572 kts | 117° |
| 2026-04-25 16:33 | 19.26775 | -29.13387 | 35038 ft | 573 kts | 117° |
| 2026-04-25 16:33 | 19.23294 | -29.05807 | 35036 ft | 573 kts | 117° |
| 2026-04-25 16:34 | 19.19810 | -28.98230 | 35030 ft | 572 kts | 117° |
| 2026-04-25 16:34 | 19.16323 | -28.90656 | 35037 ft | 573 kts | 117° |
| 2026-04-25 16:35 | 19.12831 | -28.83082 | 35030 ft | 573 kts | 117° |
| 2026-04-25 16:35 | 19.09338 | -28.75514 | 35033 ft | 573 kts | 117° |
| 2026-04-25 16:36 | 19.05838 | -28.67944 | 35026 ft | 573 kts | 117° |
| 2026-04-25 16:36 | 19.02337 | -28.60378 | 35028 ft | 573 kts | 117° |
| 2026-04-25 16:37 | 18.98830 | -28.52811 | 35025 ft | 573 kts | 117° |
| 2026-04-25 16:37 | 18.95324 | -28.45255 | 35028 ft | 573 kts | 117° |
| 2026-04-25 16:38 | 18.91812 | -28.37696 | 35028 ft | 573 kts | 117° |
| 2026-04-25 16:38 | 18.88295 | -28.30137 | 35024 ft | 573 kts | 117° |
| 2026-04-25 16:39 | 18.84800 | -28.22633 | 35024 ft | 573 kts | 117° |
| 2026-04-25 16:39 | 18.81255 | -28.15034 | 35009 ft | 573 kts | 117° |
| 2026-04-25 16:40 | 18.77738 | -28.07504 | 35026 ft | 571 kts | 117° |
| 2026-04-25 16:40 | 18.74224 | -27.99989 | 35021 ft | 570 kts | 117° |
| 2026-04-25 16:41 | 18.70736 | -27.92537 | 35016 ft | 570 kts | 117° |
| 2026-04-25 16:41 | 18.65469 | -27.81307 | 35016 ft | 569 kts | 117° |
| 2026-04-25 16:42 | 18.61954 | -27.73824 | 35018 ft | 569 kts | 117° |
| 2026-04-25 16:42 | 18.58439 | -27.66349 | 35002 ft | 569 kts | 117° |
| 2026-04-25 16:43 | 18.54925 | -27.58886 | 35014 ft | 568 kts | 117° |
| 2026-04-25 16:43 | 18.51414 | -27.51439 | 35013 ft | 567 kts | 117° |
| 2026-04-25 16:44 | 18.47902 | -27.43999 | 35017 ft | 567 kts | 117° |
| 2026-04-25 16:44 | 18.44389 | -27.36565 | 35012 ft | 567 kts | 117° |
| 2026-04-25 16:45 | 18.40870 | -27.29130 | 35015 ft | 567 kts | 117° |
| 2026-04-25 16:45 | 18.37349 | -27.21698 | 35009 ft | 567 kts | 117° |
| 2026-04-25 16:46 | 18.33827 | -27.14273 | 35010 ft | 566 kts | 117° |
| 2026-04-25 16:46 | 18.31473 | -27.09314 | 35005 ft | 566 kts | 117° |
| 2026-04-25 16:47 | 18.26791 | -26.99467 | 35005 ft | 565 kts | 117° |
| 2026-04-25 16:47 | 18.23276 | -26.92083 | 35003 ft | 565 kts | 118° |
| 2026-04-25 16:48 | 18.19757 | -26.84701 | 35003 ft | 564 kts | 118° |
| 2026-04-25 16:48 | 18.16236 | -26.77323 | 35000 ft | 564 kts | 118° |
| 2026-04-25 16:49 | 18.12712 | -26.69948 | 34990 ft | 564 kts | 118° |
| 2026-04-25 16:49 | 18.09192 | -26.62589 | 34997 ft | 563 kts | 118° |
| 2026-04-25 16:50 | 18.05698 | -26.55294 | 34999 ft | 562 kts | 118° |
| 2026-04-25 16:50 | 18.02179 | -26.47955 | 34996 ft | 562 kts | 118° |
| 2026-04-25 16:51 | 17.98663 | -26.40633 | 34997 ft | 562 kts | 118° |
| 2026-04-25 16:51 | 17.96308 | -26.35731 | 34995 ft | 561 kts | 118° |
| 2026-04-25 16:52 | 17.91622 | -26.25991 | 34994 ft | 562 kts | 118° |
| 2026-04-25 16:52 | 17.88095 | -26.18670 | 34985 ft | 562 kts | 118° |
| 2026-04-25 16:53 | 17.82805 | -26.07702 | 34993 ft | 561 kts | 118° |
| 2026-04-25 16:54 | 17.79269 | -26.00405 | 34989 ft | 561 kts | 119° |
| 2026-04-25 16:54 | 17.75559 | -25.93195 | 34990 ft | 561 kts | 121° |
| 2026-04-25 16:55 | 17.71775 | -25.86043 | 34990 ft | 560 kts | 121° |
| 2026-04-25 16:55 | 17.68006 | -25.78886 | 34986 ft | 561 kts | 121° |
| 2026-04-25 16:56 | 17.64262 | -25.71720 | 34979 ft | 560 kts | 120° |
| 2026-04-25 16:56 | 17.60528 | -25.64561 | 34981 ft | 559 kts | 120° |
| 2026-04-25 16:57 | 17.56821 | -25.57465 | 34982 ft | 558 kts | 121° |
| 2026-04-25 16:57 | 17.53089 | -25.50335 | 34980 ft | 558 kts | 121° |
| 2026-04-25 16:58 | 17.49357 | -25.43214 | 34980 ft | 557 kts | 121° |
| 2026-04-25 16:58 | 17.45598 | -25.36051 | 34981 ft | 557 kts | 121° |
| 2026-04-25 16:59 | 17.41889 | -25.28990 | 34981 ft | 557 kts | 121° |
| 2026-04-25 16:59 | 17.38155 | -25.21887 | 34975 ft | 556 kts | 121° |
| 2026-04-25 17:00 | 17.34426 | -25.14803 | 34981 ft | 555 kts | 121° |
| 2026-04-25 17:00 | 17.30699 | -25.07730 | 34984 ft | 554 kts | 121° |
| 2026-04-25 17:01 | 17.26973 | -25.00665 | 34980 ft | 554 kts | 121° |
| 2026-04-25 17:01 | 17.23246 | -24.93607 | 34977 ft | 554 kts | 121° |
| 2026-04-25 17:02 | 17.19512 | -24.86543 | 34973 ft | 555 kts | 121° |
| 2026-04-25 17:02 | 17.15778 | -24.79486 | 34972 ft | 555 kts | 121° |
| 2026-04-25 17:03 | 17.12040 | -24.72431 | 34972 ft | 555 kts | 121° |
| 2026-04-25 17:03 | 17.08301 | -24.65379 | 34968 ft | 555 kts | 121° |
| 2026-04-25 17:04 | 17.05190 | -24.59519 | 34964 ft | 555 kts | 121° |
| 2026-04-25 17:04 | 17.01442 | -24.52464 | 34964 ft | 555 kts | 121° |
| 2026-04-25 17:05 | 16.97691 | -24.45413 | 34954 ft | 555 kts | 121° |
| 2026-04-25 17:05 | 16.92060 | -24.34839 | 34963 ft | 556 kts | 121° |
| 2026-04-25 17:06 | 16.88299 | -24.27785 | 34943 ft | 556 kts | 121° |
| 2026-04-25 17:06 | 16.84535 | -24.20734 | 34964 ft | 555 kts | 121° |
| 2026-04-25 17:07 | 16.80775 | -24.13697 | 34955 ft | 555 kts | 121° |
| 2026-04-25 17:07 | 16.77010 | -24.06659 | 34964 ft | 555 kts | 121° |
| 2026-04-25 17:08 | 16.73244 | -23.99627 | 34959 ft | 555 kts | 121° |
| 2026-04-25 17:08 | 16.69473 | -23.92590 | 34959 ft | 556 kts | 121° |
| 2026-04-25 17:09 | 16.65696 | -23.85552 | 34957 ft | 556 kts | 121° |
| 2026-04-25 17:09 | 16.61919 | -23.78518 | 34958 ft | 556 kts | 121° |
| 2026-04-25 17:10 | 16.58140 | -23.71491 | 34956 ft | 556 kts | 121° |
| 2026-04-25 17:10 | 16.54381 | -23.64506 | 34957 ft | 556 kts | 121° |
| 2026-04-25 17:11 | 16.50571 | -23.57433 | 34952 ft | 556 kts | 121° |
| 2026-04-25 17:11 | 16.46809 | -23.50457 | 34952 ft | 556 kts | 121° |
| 2026-04-25 17:12 | 16.43021 | -23.43441 | 34946 ft | 556 kts | 121° |
| 2026-04-25 17:12 | 16.39227 | -23.36419 | 34949 ft | 556 kts | 121° |
| 2026-04-25 17:13 | 16.36071 | -23.30584 | 34935 ft | 556 kts | 121° |
| 2026-04-25 17:13 | 16.31638 | -23.22395 | 34939 ft | 555 kts | 121° |
| 2026-04-25 17:14 | 16.27847 | -23.15401 | 34958 ft | 555 kts | 121° |
| 2026-04-25 17:14 | 16.24055 | -23.08411 | 34942 ft | 554 kts | 121° |
| 2026-04-25 17:15 | 16.20262 | -23.01426 | 34941 ft | 555 kts | 121° |
| 2026-04-25 17:15 | 16.16463 | -22.94434 | 34941 ft | 555 kts | 121° |
| 2026-04-25 17:16 | 16.12667 | -22.87451 | 34941 ft | 555 kts | 121° |
| 2026-04-25 17:16 | 16.08943 | -22.80474 | 34948 ft | 555 kts | 120° |
| 2026-04-25 17:17 | 16.05229 | -22.73447 | 34931 ft | 554 kts | 120° |
| 2026-04-25 17:17 | 16.01515 | -22.66436 | 34931 ft | 554 kts | 120° |
| 2026-04-25 17:18 | 15.97792 | -22.59436 | 34929 ft | 553 kts | 120° |
| 2026-04-25 17:18 | 15.94064 | -22.52443 | 34938 ft | 553 kts | 120° |
| 2026-04-25 17:19 | 15.90338 | -22.45458 | 34935 ft | 553 kts | 120° |
| 2026-04-25 17:19 | 15.86605 | -22.38466 | 34928 ft | 553 kts | 120° |
| 2026-04-25 17:20 | 15.82870 | -22.31476 | 34920 ft | 553 kts | 120° |
| 2026-04-25 17:20 | 15.79138 | -22.24498 | 34925 ft | 552 kts | 120° |
| 2026-04-25 17:21 | 15.75407 | -22.17528 | 34933 ft | 552 kts | 120° |
| 2026-04-25 17:21 | 15.71677 | -22.10566 | 34917 ft | 551 kts | 120° |
| 2026-04-25 17:22 | 15.68579 | -22.04790 | 34927 ft | 551 kts | 120° |
| 2026-04-25 17:22 | 15.64220 | -21.96670 | 34924 ft | 551 kts | 120° |
| 2026-04-25 17:23 | 15.60486 | -21.89722 | 34916 ft | 551 kts | 120° |
| 2026-04-25 17:23 | 15.56752 | -21.82782 | 34920 ft | 551 kts | 120° |
| 2026-04-25 17:24 | 15.53018 | -21.75847 | 34916 ft | 550 kts | 120° |
| 2026-04-25 17:24 | 15.49309 | -21.68963 | 34903 ft | 550 kts | 120° |
| 2026-04-25 17:25 | 15.45579 | -21.62049 | 34916 ft | 550 kts | 120° |
| 2026-04-25 17:25 | 15.41822 | -21.55092 | 34915 ft | 549 kts | 120° |
| 2026-04-25 17:26 | 15.38085 | -21.48176 | 34911 ft | 550 kts | 120° |
| 2026-04-25 17:26 | 15.34349 | -21.41270 | 34914 ft | 550 kts | 120° |
| 2026-04-25 17:27 | 15.30631 | -21.34404 | 34911 ft | 550 kts | 120° |
| 2026-04-25 17:27 | 15.28131 | -21.29789 | 34895 ft | 550 kts | 120° |
| 2026-04-25 17:28 | 15.23150 | -21.20605 | 34906 ft | 548 kts | 120° |
| 2026-04-25 17:28 | 15.19415 | -21.13726 | 34912 ft | 548 kts | 120° |
| 2026-04-25 17:29 | 15.15680 | -21.06853 | 34902 ft | 548 kts | 120° |
| 2026-04-25 17:29 | 15.11943 | -20.99983 | 34903 ft | 548 kts | 120° |
| 2026-04-25 17:30 | 15.08204 | -20.93115 | 34900 ft | 548 kts | 120° |
| 2026-04-25 17:30 | 15.04462 | -20.86249 | 34896 ft | 548 kts | 120° |
| 2026-04-25 17:31 | 15.00717 | -20.79382 | 34905 ft | 548 kts | 120° |
| 2026-04-25 17:31 | 14.96972 | -20.72522 | 34896 ft | 547 kts | 120° |
| 2026-04-25 17:32 | 14.93234 | -20.65679 | 34892 ft | 546 kts | 120° |
| 2026-04-25 17:32 | 14.89495 | -20.58842 | 34890 ft | 546 kts | 120° |
| 2026-04-25 17:33 | 14.85759 | -20.52016 | 34896 ft | 545 kts | 120° |
| 2026-04-25 17:33 | 14.82021 | -20.45193 | 34895 ft | 545 kts | 120° |
| 2026-04-25 17:34 | 14.78283 | -20.38375 | 34900 ft | 545 kts | 120° |
| 2026-04-25 17:34 | 14.74541 | -20.31553 | 34899 ft | 545 kts | 120° |
| 2026-04-25 17:35 | 14.70798 | -20.24737 | 34888 ft | 545 kts | 120° |
| 2026-04-25 17:35 | 14.67572 | -20.17673 | 34888 ft | 544 kts | 109° |
| 2026-04-25 17:36 | 14.65234 | -20.10248 | 34897 ft | 543 kts | 107° |
| 2026-04-25 17:36 | 14.62927 | -20.02818 | 34887 ft | 543 kts | 107° |
| 2026-04-25 17:37 | 14.60577 | -19.95407 | 34887 ft | 543 kts | 108° |
| 2026-04-25 17:37 | 14.58202 | -19.88011 | 34892 ft | 543 kts | 108° |
| 2026-04-25 17:38 | 14.56623 | -19.83112 | 34897 ft | 543 kts | 108° |
| 2026-04-25 17:38 | 14.53434 | -19.73211 | 34891 ft | 543 kts | 108° |
| 2026-04-25 17:39 | 14.51052 | -19.65817 | 34883 ft | 543 kts | 108° |
| 2026-04-25 17:39 | 14.48667 | -19.58423 | 34882 ft | 543 kts | 108° |
| 2026-04-25 17:40 | 14.46331 | -19.51189 | 34730 ft | 528 kts | 108° |
| 2026-04-25 17:40 | 14.44029 | -19.44070 | 34462 ft | 518 kts | 108° |
| 2026-04-25 17:41 | 14.42892 | -19.40556 | 34182 ft | 515 kts | 108° |
| 2026-04-25 17:41 | 14.41762 | -19.37066 | 33915 ft | 512 kts | 108° |
| 2026-04-25 17:41 | 14.40635 | -19.33587 | 33608 ft | 510 kts | 107° |
| 2026-04-25 17:41 | 14.39512 | -19.30120 | 33308 ft | 509 kts | 107° |
| 2026-04-25 17:42 | 14.38394 | -19.26671 | 33001 ft | 507 kts | 107° |
| 2026-04-25 17:42 | 14.37275 | -19.23223 | 32665 ft | 506 kts | 107° |
| 2026-04-25 17:42 | 14.36160 | -19.19789 | 32324 ft | 504 kts | 107° |
| 2026-04-25 17:42 | 14.35049 | -19.16369 | 32002 ft | 502 kts | 107° |
| 2026-04-25 17:43 | 14.33942 | -19.12962 | 31696 ft | 500 kts | 107° |
| 2026-04-25 17:43 | 14.32841 | -19.09577 | 31384 ft | 497 kts | 107° |
| 2026-04-25 17:43 | 14.31745 | -19.06208 | 31078 ft | 494 kts | 107° |
| 2026-04-25 17:43 | 14.30654 | -19.02857 | 30747 ft | 492 kts | 107° |
| 2026-04-25 17:44 | 14.29567 | -18.99519 | 30390 ft | 490 kts | 107° |
| 2026-04-25 17:44 | 14.28478 | -18.96177 | 30032 ft | 499 kts | 107° |
| 2026-04-25 17:44 | 14.27354 | -18.92719 | 29620 ft | 516 kts | 107° |
| 2026-04-25 17:44 | 14.26211 | -18.89212 | 29121 ft | 516 kts | 107° |
| 2026-04-25 17:45 | 14.25070 | -18.85717 | 28597 ft | 512 kts | 107° |
| 2026-04-25 17:45 | 14.24687 | -18.84546 | 28425 ft | 510 kts | 107° |
| 2026-04-25 17:45 | 14.22819 | -18.78833 | 27590 ft | 502 kts | 107° |
| 2026-04-25 17:45 | 14.21694 | -18.75393 | 27094 ft | 498 kts | 107° |
| 2026-04-25 17:46 | 14.20607 | -18.72073 | 26617 ft | 493 kts | 108° |
| 2026-04-25 17:46 | 14.19517 | -18.68741 | 26143 ft | 489 kts | 108° |
| 2026-04-25 17:46 | 14.18435 | -18.65436 | 25676 ft | 485 kts | 108° |
| 2026-04-25 17:46 | 14.17362 | -18.62159 | 25212 ft | 481 kts | 108° |
| 2026-04-25 17:47 | 14.16297 | -18.58911 | 24757 ft | 477 kts | 108° |
| 2026-04-25 17:47 | 14.15241 | -18.55689 | 24320 ft | 473 kts | 108° |
| 2026-04-25 17:47 | 14.14193 | -18.52495 | 23881 ft | 469 kts | 108° |
| 2026-04-25 17:47 | 14.13151 | -18.49320 | 23447 ft | 466 kts | 108° |
| 2026-04-25 17:48 | 14.11091 | -18.43045 | 22432 ft | 459 kts | 108° |
| 2026-04-25 17:48 | 14.10071 | -18.39942 | 21924 ft | 456 kts | 108° |
| 2026-04-25 17:48 | 14.09056 | -18.36856 | 21442 ft | 453 kts | 109° |
| 2026-04-25 17:49 | 14.08048 | -18.33792 | 20949 ft | 450 kts | 109° |
| 2026-04-25 17:49 | 14.07045 | -18.30746 | 20472 ft | 448 kts | 109° |
| 2026-04-25 17:49 | 14.06049 | -18.27721 | 19996 ft | 445 kts | 109° |
| 2026-04-25 17:49 | 14.05058 | -18.24712 | 19538 ft | 442 kts | 109° |
| 2026-04-25 17:50 | 14.04404 | -18.22729 | 19233 ft | 441 kts | 109° |
| 2026-04-25 17:50 | 14.03091 | -18.18747 | 18619 ft | 438 kts | 109° |
| 2026-04-25 17:50 | 14.02443 | -18.16782 | 18293 ft | 437 kts | 109° |
| 2026-04-25 17:50 | 14.01467 | -18.13823 | 17733 ft | 436 kts | 109° |
| 2026-04-25 17:51 | 14.00495 | -18.10879 | 17154 ft | 432 kts | 109° |
| 2026-04-25 17:51 | 13.99534 | -18.07969 | 16581 ft | 426 kts | 110° |
| 2026-04-25 17:51 | 13.98588 | -18.05104 | 16025 ft | 419 kts | 110° |
| 2026-04-25 17:51 | 13.97929 | -18.02255 | 15432 ft | 409 kts | 94° |
| 2026-04-25 17:52 | 13.98222 | -17.99357 | 14893 ft | 407 kts | 75° |
| 2026-04-25 17:52 | 13.98842 | -17.97541 | 14555 ft | 406 kts | 65° |
| 2026-04-25 17:52 | 14.00877 | -17.94313 | 13871 ft | 400 kts | 52° |
| 2026-04-25 17:52 | 14.02570 | -17.92044 | 13321 ft | 399 kts | 52° |
| 2026-04-25 17:53 | 14.04270 | -17.89787 | 12742 ft | 399 kts | 52° |
| 2026-04-25 17:53 | 14.05964 | -17.87528 | 12167 ft | 398 kts | 52° |
| 2026-04-25 17:53 | 14.07643 | -17.85274 | 11616 ft | 394 kts | 53° |
| 2026-04-25 17:53 | 14.09291 | -17.83044 | 11069 ft | 388 kts | 53° |
| 2026-04-25 17:54 | 14.10870 | -17.80898 | 10500 ft | 362 kts | 53° |
| 2026-04-25 17:54 | 14.12335 | -17.78900 | 9957 ft | 337 kts | 54° |
| 2026-04-25 17:54 | 14.13700 | -17.77033 | 9598 ft | 313 kts | 53° |
| 2026-04-25 17:54 | 14.14971 | -17.75293 | 9691 ft | 297 kts | 54° |
| 2026-04-25 17:55 | 14.16201 | -17.73607 | 9717 ft | 291 kts | 54° |
| 2026-04-25 17:55 | 14.17415 | -17.71942 | 9763 ft | 289 kts | 54° |
| 2026-04-25 17:55 | 14.18630 | -17.70276 | 9631 ft | 293 kts | 54° |
| 2026-04-25 17:55 | 14.19870 | -17.68574 | 9150 ft | 299 kts | 53° |
| 2026-04-25 17:56 | 14.21108 | -17.66874 | 8646 ft | 290 kts | 53° |
| 2026-04-25 17:56 | 14.22294 | -17.65246 | 8138 ft | 278 kts | 52° |
| 2026-04-25 17:56 | 14.23441 | -17.63672 | 7656 ft | 272 kts | 52° |
| 2026-04-25 17:56 | 14.24573 | -17.62119 | 7233 ft | 273 kts | 51° |
| 2026-04-25 17:57 | 14.25713 | -17.60555 | 7066 ft | 274 kts | 51° |
| 2026-04-25 17:57 | 14.26859 | -17.58984 | 7016 ft | 274 kts | 51° |
| 2026-04-25 17:57 | 14.28002 | -17.57414 | 7008 ft | 274 kts | 51° |
| 2026-04-25 17:57 | 14.28761 | -17.56372 | 7005 ft | 274 kts | 51° |
| 2026-04-25 17:58 | 14.30281 | -17.54286 | 7010 ft | 274 kts | 51° |
| 2026-04-25 17:58 | 14.31421 | -17.52718 | 6999 ft | 266 kts | 50° |
| 2026-04-25 17:58 | 14.32523 | -17.51204 | 6999 ft | 262 kts | 51° |
| 2026-04-25 17:58 | 14.33604 | -17.49719 | 7003 ft | 262 kts | 51° |
| 2026-04-25 17:59 | 14.34700 | -17.48212 | 7002 ft | 264 kts | 51° |
| 2026-04-25 17:59 | 14.35809 | -17.46688 | 6784 ft | 268 kts | 51° |
| 2026-04-25 17:59 | 14.36922 | -17.45146 | 6524 ft | 263 kts | 53° |
| 2026-04-25 17:59 | 14.37628 | -17.43431 | 6230 ft | 264 kts | 79° |
| 2026-04-25 18:00 | 14.37449 | -17.41553 | 5976 ft | 268 kts | 109° |
| 2026-04-25 18:00 | 14.36418 | -17.39964 | 5702 ft | 270 kts | 138° |
| 2026-04-25 18:00 | 14.34778 | -17.39048 | 5446 ft | 270 kts | 167° |
| 2026-04-25 18:00 | 14.32925 | -17.39021 | 5176 ft | 268 kts | 196° |
| 2026-04-25 18:01 | 14.31301 | -17.39846 | 5064 ft | 256 kts | 216° |
| 2026-04-25 18:01 | 14.29641 | -17.40558 | 5009 ft | 267 kts | 189° |
| 2026-04-25 18:01 | 14.27768 | -17.40376 | 5007 ft | 277 kts | 159° |
| 2026-04-25 18:01 | 14.26157 | -17.39298 | 5003 ft | 272 kts | 129° |
| 2026-04-25 18:02 | 14.25121 | -17.37745 | 5008 ft | 265 kts | 116° |
| 2026-04-25 18:02 | 14.24246 | -17.36082 | 5003 ft | 264 kts | 115° |
| 2026-04-25 18:02 | 14.23400 | -17.34401 | 4999 ft | 264 kts | 115° |
| 2026-04-25 18:02 | 14.22564 | -17.32705 | 4886 ft | 268 kts | 114° |
| 2026-04-25 18:03 | 14.21724 | -17.30985 | 4671 ft | 269 kts | 114° |
| 2026-04-25 18:03 | 14.20881 | -17.29282 | 4439 ft | 264 kts | 114° |
| 2026-04-25 18:03 | 14.20111 | -17.27603 | 4187 ft | 254 kts | 102° |
| 2026-04-25 18:03 | 14.20036 | -17.25841 | 4083 ft | 244 kts | 73° |
| 2026-04-25 18:04 | 14.20561 | -17.24166 | 4017 ft | 248 kts | 65° |
| 2026-04-25 18:04 | 14.21197 | -17.22513 | 4007 ft | 247 kts | 64° |
| 2026-04-25 18:04 | 14.21835 | -17.20876 | 3999 ft | 246 kts | 64° |
| 2026-04-25 18:04 | 14.22480 | -17.19250 | 3996 ft | 245 kts | 64° |
| 2026-04-25 18:05 | 14.23195 | -17.17676 | 3984 ft | 239 kts | 56° |
| 2026-04-25 18:05 | 14.24300 | -17.16443 | 3999 ft | 236 kts | 35° |
| 2026-04-25 18:05 | 14.25637 | -17.15422 | 3998 ft | 241 kts | 34° |
| 2026-04-25 18:05 | 14.26993 | -17.14396 | 3999 ft | 241 kts | 34° |
| 2026-04-25 18:06 | 14.28321 | -17.13382 | 3986 ft | 234 kts | 34° |
| 2026-04-25 18:06 | 14.29618 | -17.12388 | 3978 ft | 231 kts | 34° |
| 2026-04-25 18:06 | 14.30919 | -17.11395 | 3758 ft | 236 kts | 34° |
| 2026-04-25 18:06 | 14.32262 | -17.10399 | 3328 ft | 239 kts | 30° |
| 2026-04-25 18:07 | 14.33663 | -17.09519 | 3054 ft | 229 kts | 29° |
| 2026-04-25 18:07 | 14.35010 | -17.08689 | 3009 ft | 223 kts | 29° |
| 2026-04-25 18:07 | 14.36326 | -17.07866 | 2994 ft | 220 kts | 30° |
| 2026-04-25 18:07 | 14.37690 | -17.07237 | 2984 ft | 214 kts | 9° |
| 2026-04-25 18:08 | 14.39159 | -17.07111 | 3001 ft | 213 kts | 3° |
| 2026-04-25 18:08 | 14.40640 | -17.07061 | 2990 ft | 212 kts | 1° |
| 2026-04-25 18:08 | 14.42079 | -17.07053 | 2988 ft | 201 kts | 360° |
| 2026-04-25 18:08 | 14.43507 | -17.07060 | 2996 ft | 207 kts | 359° |
| 2026-04-25 18:09 | 14.44952 | -17.07072 | 2993 ft | 206 kts | 359° |
| 2026-04-25 18:09 | 14.46354 | -17.07086 | 2972 ft | 195 kts | 359° |
| 2026-04-25 18:09 | 14.47656 | -17.07099 | 2974 ft | 181 kts | 359° |
| 2026-04-25 18:09 | 14.48077 | -17.07103 | 2991 ft | 180 kts | 360° |
| 2026-04-25 18:10 | 14.50156 | -17.07122 | 2997 ft | 182 kts | 360° |
| 2026-04-25 18:10 | 14.51428 | -17.07134 | 2922 ft | 185 kts | 360° |
| 2026-04-25 18:10 | 14.52715 | -17.07146 | 2669 ft | 183 kts | 359° |
| 2026-04-25 18:10 | 14.53961 | -17.07160 | 2472 ft | 175 kts | 0° |
| 2026-04-25 18:11 | 14.55141 | -17.07172 | 2251 ft | 162 kts | 1° |
| 2026-04-25 18:11 | 14.56221 | -17.07181 | 2031 ft | 147 kts | 2° |
| 2026-04-25 18:11 | 14.57192 | -17.07190 | 1842 ft | 136 kts | 1° |
| 2026-04-25 18:11 | 14.58150 | -17.07198 | 1691 ft | 138 kts | 2° |
| 2026-04-25 18:12 | 14.59083 | -17.07208 | 1527 ft | 135 kts | 3° |
| 2026-04-25 18:12 | 14.60015 | -17.07215 | 1335 ft | 132 kts | 0° |
| 2026-04-25 18:12 | 14.60943 | -17.07223 | 1155 ft | 137 kts | 359° |
| 2026-04-25 18:12 | 14.61895 | -17.07234 | 1002 ft | 137 kts | 0° |
| 2026-04-25 18:13 | 14.62832 | -17.07243 | 839 ft | 131 kts | 360° |
| 2026-04-25 18:13 | 14.63729 | -17.07251 | 636 ft | 125 kts | 358° |
| 2026-04-25 18:13 | 14.64615 | -17.07259 | 494 ft | 133 kts | 359° |
| 2026-04-25 18:14 | 14.66423 | -17.07276 | 297 ft | 114 kts | 359° |
| 2026-04-25 18:14 | 14.67037 | -17.07282 | 305 ft | 72 kts | 359° |
| 2026-04-25 18:14 | 14.67430 | -17.07286 | 298 ft | 42 kts | 359° |
| 2026-04-25 18:14 | 14.67664 | -17.07258 | 297 ft | 27 kts | 17° |
| 2026-04-25 18:15 | 14.67797 | -17.07193 | 291 ft | 7 kts | 28° |
| 2026-04-25 18:15 | 14.67822 | -17.07179 | 292 ft | 1 kts | 28° |
| 2026-04-25 18:15 | 14.67833 | -17.07173 | 288 ft | 1 kts | 28° |
| 2026-04-25 18:15 | 14.67847 | -17.07165 | 288 ft | 3 kts | 28° |
| 2026-04-25 18:16 | 14.67873 | -17.07150 | 288 ft | 4 kts | 29° |
| 2026-04-25 18:16 | 14.67878 | -17.07147 | 288 ft | 2 kts | 31° |
| 2026-04-25 18:16 | 14.67878 | -17.07107 | 288 ft | 5 kts | 140° |
| 2026-04-25 18:17 | 14.67833 | -17.07099 | 294 ft | 9 kts | 179° |
| 2026-04-25 18:17 | 14.67793 | -17.07098 | 293 ft | 3 kts | 179° |
| 2026-04-25 18:17 | 14.67730 | -17.07098 | 293 ft | 15 kts | 179° |
| 2026-04-25 18:17 | 14.67605 | -17.07096 | 300 ft | 18 kts | 179° |
| 2026-04-25 18:18 | 14.67473 | -17.07095 | 296 ft | 20 kts | 179° |
| 2026-04-25 18:18 | 14.67331 | -17.07094 | 301 ft | 21 kts | 179° |
| 2026-04-25 18:18 | 14.67180 | -17.07092 | 305 ft | 22 kts | 179° |
| 2026-04-25 18:18 | 14.67023 | -17.07091 | 303 ft | 23 kts | 180° |
| 2026-04-25 18:19 | 14.66857 | -17.07090 | 302 ft | 25 kts | 180° |
| 2026-04-25 18:19 | 14.66683 | -17.07088 | 300 ft | 25 kts | 179° |
| 2026-04-25 18:19 | 14.66499 | -17.07087 | 299 ft | 28 kts | 179° |
| 2026-04-25 18:19 | 14.66299 | -17.07084 | 300 ft | 29 kts | 179° |
| 2026-04-25 18:20 | 14.66094 | -17.07082 | 298 ft | 29 kts | 179° |
| 2026-04-25 18:20 | 14.65895 | -17.07080 | 294 ft | 27 kts | 179° |
| 2026-04-25 18:20 | 14.65718 | -17.07078 | 288 ft | 26 kts | 179° |
| 2026-04-25 18:20 | 14.65578 | -17.07076 | 284 ft | 13 kts | 179° |
| 2026-04-25 18:21 | 14.65532 | -17.07106 | 283 ft | 7 kts | 250° |
| 2026-04-25 18:21 | 14.65531 | -17.07119 | 283 ft | 0 kts | 264° |
| 2026-04-25 18:23 | 14.65529 | -17.07136 | 283 ft | 9 kts | 266° |
| 2026-04-25 18:23 | 14.65528 | -17.07266 | 284 ft | 27 kts | 270° |
| 2026-04-25 18:24 | 14.65527 | -17.07386 | 286 ft | 15 kts | 270° |
| 2026-04-25 18:24 | 14.65526 | -17.07496 | 286 ft | 15 kts | 269° |
| 2026-04-25 18:24 | 14.65525 | -17.07605 | 285 ft | 15 kts | 268° |
| 2026-04-25 18:24 | 14.65524 | -17.07695 | 285 ft | 2 kts | 270° |
| 2026-04-25 18:25 | 14.65524 | -17.07708 | 285 ft | 0 kts | 270° |